Return to Metar
METAR CYNL 190900Z AUTO 00000KT CLR 13/10 A2994 RMK AO1 SLP129
METAR CYNL 190800Z AUTO 00002KT BKN088 14/10 A2993 RMK AO1 SLP125
METAR CYNL 190700Z AUTO 01002KT BKN086 15/10 A2993 RMK AO1 SLP125
METAR CYNL 190600Z AUTO 01005KT FEW086 15/09 A2992 RMK AO1 SLP122
METAR CYNL 190500Z AUTO 02004KT CLR 15/10 A2991 RMK AO1 SLP117
METAR CYNL 190400Z AUTO 01004KT CLR 18/10 A2990 RMK AO1 SLP111
METAR CYNL 190300Z AUTO 01005KT CLR 19/09 A2989 RMK AO1 SLP109
METAR CYNL 190200Z AUTO 33005KT CLR 21/08 A2989 RMK AO1 SLP108
METAR CYNL 190100Z AUTO 33008KT CLR 22/08 A2989 RMK AO1 SLP107
METAR CYNL 190000Z AUTO 33005KT CLR 22/07 A2988 RMK AO1 SLP107
METAR CYNL 182300Z AUTO 29008KT FEW240 24/06 A2989 RMK AO1 SLP110
METAR CYNL 182200Z AUTO 31007KT FEW064 24/06 A2989 RMK AO1 SLP112
SPECI CYNL 182117Z AUTO 30012G19KT 270V330 CLR 23/05 A2989 RMK AO1 WSHFT (21)17 SLP111
METAR CYNL 182100Z AUTO 30007KT CLR 23/05 A2989 RMK AO1 WSHFT (20)50 SLP112
SPECI CYNL 182050Z AUTO 28012KT FEW064 23/06 A2989 RMK AO1 WSHFT (20)50 SLP112
SPECI CYNL 182046Z AUTO 33010KT CLR 23/06 A2989 RMK AO1 WSHFT (20)46 SLP112
METAR CYNL 182000Z AUTO 29014KT CLR 22/06 A2989 RMK AO1 WSHFT (19)50 SLP114
SPECI CYNL 181950Z AUTO 28012G17KT CLR 23/05 A2989 RMK AO1 WSHFT (19)50 SLP114
SPECI CYNL 181930Z AUTO 30012G18KT 260V340 CLR 22/06 A2989 RMK AO1 WSHFT (19)30 SLP114
METAR CYNL 181900Z AUTO 31007G15KT CLR 22/07 A2989 RMK AO1 SLP115
METAR CYNL 181800Z AUTO 28012G19KT CLR 21/07 A2990 RMK AO1 SLP118
METAR CYNL 181700Z AUTO 28012G18KT CLR 21/07 A2990 RMK AO1 SLP117
METAR CYNL 181600Z AUTO 28012G17KT CLR 20/07 A2991 RMK AO1 SLP118
METAR CYNL 181500Z AUTO 29009KT CLR 19/08 A2991 RMK AO1 SLP116
METAR CYNL 181400Z AUTO 28010KT CLR 18/09 A2992 RMK AO1 SLP119
METAR CYNL 181300Z AUTO 29008KT CLR 16/08 A2991 RMK AO1 SLP117
METAR CYNL 181200Z AUTO 27006KT CLR 14/07 A2991 RMK AO1 SLP116
METAR CYNL 181100Z AUTO 27004KT CLR 12/07 A2990 RMK AO1 SLP116
METAR CYNL 181000Z AUTO 27005KT CLR 12/06 A2990 RMK AO1 SLP113
METAR CYNL 180900Z AUTO 26003KT CLR 12/07 A2989 RMK AO1 SLP111
METAR CYNL 180800Z AUTO 24004KT CLR 12/07 A2988 RMK AO1 SLP107
METAR CYNL 180700Z AUTO 23003KT CLR 12/07 A2988 RMK AO1 SLP108
METAR CYNL 180600Z AUTO 23002KT CLR 14/07 A2988 RMK AO1 SLP106
METAR CYNL 180500Z AUTO 26003KT CLR 16/06 A2988 RMK AO1 SLP102
METAR CYNL 180400Z AUTO 29004KT CLR 18/06 A2987 RMK AO1 SLP097
METAR CYNL 180300Z AUTO 30007G16KT CLR 21/04 A2985 RMK AO1 SLP091
METAR CYNL 180200Z AUTO 28016G23KT CLR 23/02 A2984 RMK AO1 SLP086
METAR CYNL 180100Z AUTO 28012G22KT CLR 24/03 A2982 RMK AO1 SLP080
METAR CYNL 180000Z AUTO 27013G25KT CLR 24/05 A2981 RMK AO1 SLP080
METAR CYNL 172300Z AUTO 30013G22KT CLR 25/06 A2980 RMK AO1 SLP079
METAR CYNL 172200Z AUTO 28016G23KT FEW082 SCT180 26/06 A2980 RMK AO1 SLP079
METAR CYNL 172100Z AUTO 26010G20KT FEW080 27/06 A2979 RMK AO1 SLP074
METAR CYNL 172000Z AUTO 25014G22KT CLR 26/09 A2979 RMK AO1 SLP076
METAR CYNL 171900Z AUTO 28013G21KT FEW076 25/10 A2979 RMK AO1 SLP073
METAR CYNL 171800Z AUTO 25009G18KT SCT078 25/11 A2978 RMK AO1 SLP071
METAR CYNL 171700Z AUTO 25009KT CLR 25/11 A2979 RMK AO1 SLP074
METAR CYNL 171600Z AUTO 26006KT CLR 24/11 A2980 RMK AO1 SLP077
METAR CYNL 171500Z AUTO 27006KT FEW140 22/11 A2982 RMK AO1 SLP083
METAR CYNL 171400Z AUTO 26008KT CLR 20/12 A2982 RMK AO1 SLP085
METAR CYNL 171300Z AUTO 23005KT CLR 18/13 A2981 RMK AO1 SLP085
METAR CYNL 171200Z AUTO 23005KT FEW100 15/12 A2981 RMK AO1 SLP087
METAR CYNL 171100Z AUTO 22003KT CLR 13/11 A2982 RMK AO1 SLP091
METAR CYNL 171000Z AUTO 18005KT CLR 13/10 A2982 RMK AO1 SLP092
METAR CYNL 170900Z AUTO 18004KT CLR 14/10 A2984 RMK AO1 SLP095
METAR CYNL 170800Z AUTO 18005KT CLR 14/09 A2985 RMK AO1 SLP098
METAR CYNL 170700Z AUTO 18005KT SCT100 15/09 A2986 RMK AO1 SLP102
METAR CYNL 170600Z AUTO 17006KT OVC130 16/09 A2987 RMK AO1 PRESFR SLP106
METAR CYNL 170500Z AUTO 18008KT OVC110 17/09 A2990 RMK AO1 SLP114
METAR CYNL 170400Z AUTO 17008KT BKN110 17/09 A2991 RMK AO1 SLP119
METAR CYNL 170300Z AUTO 18011KT BKN120 18/09 A2992 RMK AO1 SLP121
METAR CYNL 170200Z AUTO 17012KT BKN100 18/09 A2993 RMK AO1 SLP125
METAR CYNL 170100Z AUTO 17009G17KT FEW100 19/08 A2994 RMK AO1 SLP130
METAR CYNL 170000Z AUTO 18009G17KT CLR 19/08 A2995 RMK AO1 SLP137
METAR CYNL 162300Z AUTO 18008KT SCT090 20/08 A2997 RMK AO1 SLP145
METAR CYNL 162200Z AUTO 19009G16KT FEW190 20/05 A2998 RMK AO1 SLP151
METAR CYNL 162100Z AUTO 19009G15KT FEW210 20/05 A3000 RMK AO1 SLP158
SPECI CYNL 162005Z AUTO 17010G17KT FEW200 21/06 A3002 RMK AO1 WSHFT (20)05 SLP163
METAR CYNL 162000Z AUTO 21013KT FEW200 20/05 A3002 RMK AO1 SLP165
SPECI CYNL 161928Z AUTO 21011G17KT CLR 20/04 A3002 RMK AO1 WSHFT (19)28 SLP167
SPECI CYNL 161917Z AUTO 16011G19KT CLR 20/06 A3002 RMK AO1 WSHFT (19)17 SLP167
METAR CYNL 161900Z AUTO 18010G16KT CLR 20/07 A3003 RMK AO1 SLP169
METAR CYNL 161800Z AUTO 21008KT FEW050 19/06 A3005 RMK AO1 SLP175
METAR CYNL 161700Z AUTO 17010KT SCT049 18/06 A3007 RMK AO1 SLP182
METAR CYNL 161600Z AUTO 21009KT 170V240 CLR 18/06 A3008 RMK AO1 SLP187
METAR CYNL 161500Z AUTO 18007KT CLR 16/06 A3009 RMK AO1 SLP189
METAR CYNL 161400Z AUTO 19006KT CLR 15/04 A3009 RMK AO1 SLP187
METAR CYNL 161300Z AUTO 19005KT CLR 13/06 A3009 RMK AO1 SLP187
METAR CYNL 161200Z AUTO 19004KT CLR 11/06 A3009 RMK AO1 SLP188
METAR CYNL 161100Z AUTO 22004KT CLR 08/06 A3009 RMK AO1 SLP191
METAR CYNL 161000Z AUTO 21003KT CLR 07/06 A3008 RMK AO1 SLP191
METAR CYNL 160900Z AUTO 21003KT CLR 07/06 A3008 RMK AO1 SLP190
METAR CYNL 160800Z AUTO 21003KT CLR 07/07 A3008 RMK AO1 SLP191
METAR CYNL 160700Z AUTO 21003KT CLR 07/06 A3008 RMK AO1 SLP189
METAR CYNL 160600Z AUTO 23003KT CLR 07/06 A3007 RMK AO1 SLP187
METAR CYNL 160500Z AUTO 00000KT CLR 09/06 A3005 RMK AO1 SLP184
METAR CYNL 160400Z AUTO 18002KT CLR 12/07 A3004 RMK AO1 SLP177
METAR CYNL 160300Z AUTO 14003KT CLR 15/04 A3002 RMK AO1 SLP170
METAR CYNL 160200Z AUTO 03006KT CLR 17/04 A3001 RMK AO1 SLP163
METAR CYNL 160100Z AUTO 04004KT CLR 16/03 A3000 RMK AO1 SLP161
METAR CYNL 160000Z AUTO 03013KT CLR 17/02 A2999 RMK AO1 SLP155
METAR CYNL 152300Z AUTO 01011KT CLR 16/02 A2998 RMK AO1 SLP152
METAR CYNL 152200Z AUTO 01013G18KT CLR 16/03 A2996 RMK AO1 PRESRR SLP148
METAR CYNL 152100Z AUTO 02016KT FEW170 16/03 A2994 RMK AO1 PRESRR SLP140
METAR CYNL 152000Z AUTO 00011G21KT FEW076 15/05 A2991 RMK AO1 PRESRR SLP131
METAR CYNL 151900Z AUTO 01010G20KT SCT042 BKN072 13/06 A2989 RMK AO1 PRESRR SLP123
METAR CYNL 151800Z AUTO 01011G17KT OVC038 11/05 A2986 RMK AO1 PRESRR SLP116
METAR CYNL 151700Z AUTO 35010KT OVC033 09/06 A2982 RMK AO1 PRESRR SLP105
SPECI CYNL 151633Z AUTO 00010G19KT OVC030 09/07 A2981 RMK AO1 PRESRR SLP100
SPECI CYNL 151601Z AUTO 00013G21KT FEW015 OVC025 09/07 A2979 RMK AO1 PRESRR SLP092
METAR CYNL 151600Z AUTO 00012G21KT FEW015 OVC024 09/07 A2979 RMK AO1 PRESRR SLP092
SPECI CYNL 151559Z AUTO 01012G21KT FEW015 SCT022 OVC026 09/07 A2979 RMK AO1 PRESRR SLP091
METAR CYNL 151500Z AUTO 02014G24KT FEW011 OVC023 09/07 A2975 RMK AO1 PRESRR SLP077
SPECI CYNL 151457Z AUTO 01016G24KT FEW011 SCT019 OVC026 09/07 A2974 RMK AO1 PRESRR SLP077
SPECI CYNL 151434Z AUTO 01012G23KT FEW011 SCT016 BKN022 08/07 A2973 RMK AO1 PRESRR SLP071
SPECI CYNL 151433Z AUTO 01012G23KT FEW011 SCT017 BKN025 08/07 A2973 RMK AO1 PRESRR SLP071
SPECI CYNL 151413Z AUTO 01014G22KT FEW009 SCT016 BKN022 08/07 A2971 RMK AO1 PRESRR SLP067
SPECI CYNL 151411Z AUTO 01012G26KT FEW011 BKN017 BKN029 08/07 A2971 RMK AO1 PRESRR SLP067
SPECI CYNL 151410Z AUTO 01013G26KT VV033 08/07 A2971 RMK AO1 PRESRR SLP067
SPECI CYNL 151409Z AUTO 01015G26KT FEW013 BKN017 BKN030 08/07 A2971 RMK AO1 PRESRR SLP067
SPECI CYNL 151407Z AUTO 01014G26KT VV030 08/07 A2971 RMK AO1 PRESRR SLP066
SPECI CYNL 151405Z AUTO 01014G26KT VV026 08/07 A2971 RMK AO1 PRESRR SLP066
METAR CYNL 151400Z AUTO 02018G26KT VV020 08/07 A2971 RMK AO1 PRESRR SLP065
SPECI CYNL 151352Z AUTO 01018G24KT FEW010 BKN015 OVC021 08/07 A2970 RMK AO1 PRESRR SLP062
SPECI CYNL 151306Z AUTO 01016G30KT FEW007 BKN010 BKN018 08/07 A2966 RMK AO1 PRESRR SLP049
SPECI CYNL 151305Z AUTO 02019G30KT BKN009 BKN018 OVC026 08/07 A2966 RMK AO1 PRESRR SLP048
SPECI CYNL 151303Z AUTO 02021G30KT FEW008 BKN010 BKN013 08/07 A2966 RMK AO1 PRESRR SLP048
METAR CYNL 151300Z AUTO 02016G27KT BKN009 OVC013 08/07 A2966 RMK AO1 PRESRR SLP047
SPECI CYNL 151255Z AUTO 02015G27KT BKN009 OVC014 08/07 A2965 RMK AO1 PRESRR SLP046
SPECI CYNL 151252Z AUTO 01017G24KT SCT008 BKN010 OVC013 08/07 A2965 RMK AO1 PRESRR SLP045
SPECI CYNL 151250Z AUTO 01014G24KT BKN009 BKN013 OVC020 08/08 A2965 RMK AO1 PRESRR SLP045
SPECI CYNL 151220Z AUTO 02019G28KT SCT007 BKN010 OVC018 09/07 A2962 RMK AO1 PRESRR SLP037
SPECI CYNL 151208Z AUTO 02011G25KT SCT007 BKN009 OVC013 09/08 A2962 RMK AO1 PRESRR SLP036
SPECI CYNL 151205Z AUTO 02015G25KT SCT007 BKN010 OVC014 09/08 A2962 RMK AO1 PRESRR SLP035
SPECI CYNL 151203Z AUTO 01014G25KT BKN007 BKN014 OVC020 09/08 A2962 RMK AO1 PRESRR SLP035
METAR CYNL 151200Z AUTO 01017G25KT SCT006 BKN010 BKN014 09/08 A2962 RMK AO1 PRESRR SLP033
SPECI CYNL 151153Z AUTO 02015G21KT SCT007 BKN010 BKN014 09/08 A2961 RMK AO1 PRESRR SLP032
SPECI CYNL 151150Z AUTO 01014G23KT BKN008 BKN012 OVC019 09/08 A2961 RMK AO1 PRESRR SLP031
SPECI CYNL 151148Z AUTO 01014G27KT SCT008 BKN013 OVC019 09/08 A2961 RMK AO1 PRESRR SLP030
SPECI CYNL 151146Z AUTO 01015G27KT BKN009 BKN014 OVC019 09/08 A2961 RMK AO1 PRESRR SLP030
SPECI CYNL 151139Z AUTO 02019G29KT SCT008 BKN010 BKN019 09/08 A2960 RMK AO1 PRESRR SLP028
SPECI CYNL 151138Z AUTO 02018G29KT BKN008 BKN019 OVC024 09/08 A2960 RMK AO1 PRESRR SLP029
SPECI CYNL 151136Z AUTO 01018G29KT SCT007 BKN010 BKN018 09/08 A2960 RMK AO1 PRESRR SLP029
SPECI CYNL 151133Z AUTO 02015G29KT FEW007 BKN009 BKN018 09/08 A2960 RMK AO1 PRESRR SLP028
SPECI CYNL 151132Z AUTO 01015G29KT FEW006 SCT009 BKN012 09/08 A2960 RMK AO1 PRESRR SLP027
SPECI CYNL 151110Z AUTO 02016G32KT FEW007 BKN009 OVC020 09/08 A2958 RMK AO1 PRESRR SLP022
SPECI CYNL 151107Z AUTO 02017G32KT FEW007 SCT009 BKN012 09/08 A2958 RMK AO1 PRESRR SLP021
SPECI CYNL 151103Z AUTO 02023G32KT BKN009 BKN014 OVC019 09/08 A2958 RMK AO1 PRESRR SLP020
SPECI CYNL 151102Z AUTO 02018G27KT FEW007 SCT008 BKN011 09/08 A2958 RMK AO1 PRESRR SLP020
SPECI CYNL 151101Z AUTO 01017G25KT BKN009 OVC014 09/08 A2958 RMK AO1 PRESRR SLP020
METAR CYNL 151100Z AUTO 01015G25KT SCT009 BKN010 OVC014 09/08 A2958 RMK AO1 PRESRR SLP019
SPECI CYNL 151058Z AUTO 02015G25KT BKN009 OVC014 09/08 A2958 RMK AO1 PRESRR SLP019
SPECI CYNL 151057Z AUTO 02016G25KT SCT009 BKN011 OVC014 09/08 A2957 RMK AO1 PRESRR SLP018
SPECI CYNL 151055Z AUTO 01012G24KT BKN009 OVC013 09/08 A2957 RMK AO1 PRESRR SLP018
SPECI CYNL 151036Z AUTO 02019G28KT SCT009 BKN013 OVC018 09/08 A2956 RMK AO1 PRESRR SLP014
SPECI CYNL 151033Z AUTO 02018G28KT BKN009 BKN013 OVC018 09/08 A2956 RMK AO1 PRESRR SLP013
SPECI CYNL 151019Z AUTO 02016G25KT SCT009 BKN013 OVC018 09/08 A2955 RMK AO1 PRESRR SLP010
SPECI CYNL 151018Z AUTO 02016G25KT FEW007 BKN009 OVC016 09/09 A2955 RMK AO1 PRESRR SLP010
SPECI CYNL 151017Z AUTO 02015G25KT SCT009 BKN012 OVC016 09/09 A2955 RMK AO1 PRESRR SLP009
SPECI CYNL 151012Z AUTO 01017G31KT BKN009 OVC014 10/08 A2954 RMK AO1 PRESRR SLP008
SPECI CYNL 151011Z AUTO 01019G31KT SCT008 BKN010 OVC014 10/08 A2954 RMK AO1 PRESRR SLP008
SPECI CYNL 151009Z AUTO 02017G31KT BKN009 BKN012 OVC015 10/09 A2954 RMK AO1 PRESRR SLP007
SPECI CYNL 151002Z AUTO 01020G31KT SCT009 BKN012 OVC016 10/08 A2954 RMK AO1 PRESRR SLP006
METAR CYNL 151000Z AUTO 01020G26KT SCT010 BKN012 OVC016 10/09 A2954 RMK AO1 PRESRR SLP006
SPECI CYNL 150947Z AUTO 02015G24KT SCT009 BKN011 OVC013 10/09 A2953 RMK AO1 SLP004
METAR CYNL 150900Z AUTO 01016G21KT BKN010 BKN013 OVC018 10/09 A2952 RMK AO1 SLP998
SPECI CYNL 150829Z AUTO 01016G23KT FEW007 SCT010 BKN015 10/09 A2951 RMK AO1 SLP995
SPECI CYNL 150828Z AUTO 01017G23KT FEW007 BKN010 OVC021 10/09 A2951 RMK AO1 SLP995
METAR CYNL 150800Z AUTO 01018G26KT FEW009 SCT014 BKN020 10/09 A2950 RMK AO1 SLP992
SPECI CYNL 150755Z AUTO 01017G26KT FEW008 SCT011 BKN015 10/09 A2950 RMK AO1 SLP991
SPECI CYNL 150754Z AUTO 01017G26KT SCT008 BKN014 BKN020 10/10 A2950 RMK AO1 SLP991
SPECI CYNL 150736Z AUTO 00014G20KT FEW003 SCT007 BKN019 11/10 A2949 RMK AO1 SLP989
SPECI CYNL 150735Z AUTO 00013G20KT FEW003 SCT007 BKN013 11/10 A2949 RMK AO1 SLP989
SPECI CYNL 150734Z AUTO 01014G20KT FEW003 SCT007 OVC020 11/10 A2949 RMK AO1 SLP989
SPECI CYNL 150732Z AUTO 00014G27KT FEW003 SCT007 BKN013 11/10 A2949 RMK AO1 SLP989
SPECI CYNL 150721Z AUTO 01017G24KT FEW003 SCT006 BKN016 11/10 A2949 RMK AO1 SLP987
SPECI CYNL 150715Z AUTO 01016G23KT FEW003 SCT007 BKN011 11/10 A2949 RMK AO1 SLP987
SPECI CYNL 150707Z AUTO 01016G22KT FEW003 BKN007 BKN016 11/10 A2948 RMK AO1 SLP986
SPECI CYNL 150705Z AUTO 00014G22KT FEW003 SCT007 BKN013 11/10 A2948 RMK AO1 SLP986
SPECI CYNL 150703Z AUTO 00013G22KT FEW003 SCT006 OVC016 11/10 A2948 RMK AO1 SLP985
SPECI CYNL 150701Z AUTO 01013G22KT FEW003 SCT006 BKN013 11/10 A2948 RMK AO1 SLP985
METAR CYNL 150700Z AUTO 01012G22KT SCT006 OVC016 11/10 A2948 RMK AO1 SLP985
SPECI CYNL 150648Z AUTO 01013G21KT SCT007 BKN010 OVC015 11/10 A2948 RMK AO1 SLP985
SPECI CYNL 150646Z AUTO 01013G21KT SCT006 OVC015 11/10 A2948 RMK AO1 SLP984
SPECI CYNL 150632Z AUTO 01013G25KT SCT007 BKN011 BKN015 11/10 A2948 RMK AO1 SLP984
SPECI CYNL 150627Z AUTO 02019G25KT SCT006 BKN015 OVC018 11/10 A2947 RMK AO1 SLP983
SPECI CYNL 150623Z AUTO 02016G26KT SCT006 BKN012 OVC019 11/10 A2948 RMK AO1 SLP983
SPECI CYNL 150622Z AUTO 02017G27KT VV015 11/10 A2948 RMK AO1 SLP983
SPECI CYNL 150604Z AUTO 03022KT SCT006 BKN010 OVC013 11/10 A2947 RMK AO1 SLP982
SPECI CYNL 150603Z AUTO 03021KT SCT006 BKN009 OVC013 11/10 A2947 RMK AO1 SLP982
METAR CYNL 150600Z AUTO 02014G23KT SCT006 OVC013 11/11 A2947 RMK AO1 SLP982
SPECI CYNL 150532Z AUTO 01014G23KT SCT006 OVC013 12/11 A2947 RMK AO1 SLP979
METAR CYNL 150500Z AUTO 01014G25KT SCT003 BKN009 OVC014 12/11 A2946 RMK AO1 SLP976
SPECI CYNL 150424Z AUTO 01014G23KT SCT007 BKN009 OVC013 12/11 A2945 RMK AO1 SLP972
SPECI CYNL 150421Z AUTO 01014G23KT FEW005 SCT008 BKN011 12/12 A2945 RMK AO1 SLP972
SPECI CYNL 150417Z AUTO 00010G27KT SCT007 BKN009 OVC015 12/12 A2945 RMK AO1 SLP972
SPECI CYNL 150416Z AUTO 00011G27KT SCT008 BKN012 OVC015 12/12 A2945 RMK AO1 SLP971
SPECI CYNL 150415Z AUTO 01015G27KT FEW004 BKN009 OVC013 12/12 A2945 RMK AO1 SLP972
SPECI CYNL 150414Z AUTO 01017G27KT FEW005 SCT008 BKN011 12/11 A2945 RMK AO1 SLP972
SPECI CYNL 150413Z AUTO 01014G27KT FEW005 BKN008 OVC014 12/12 A2945 RMK AO1 SLP971
SPECI CYNL 150411Z AUTO 01018G27KT FEW005 SCT008 BKN011 12/12 A2945 RMK AO1 SLP972
SPECI CYNL 150410Z AUTO 01017G27KT SCT006 BKN009 OVC014 12/12 A2945 RMK AO1 SLP972
SPECI CYNL 150409Z AUTO 01015G27KT FEW005 SCT008 BKN010 12/12 A2945 RMK AO1 SLP972
SPECI CYNL 150408Z AUTO 01018G27KT FEW006 BKN009 OVC016 12/12 A2945 RMK AO1 SLP972
METAR CYNL 150400Z AUTO 01018G26KT SCT007 BKN011 BKN014 13/12 A2945 RMK AO1 SLP971
SPECI CYNL 150344Z AUTO 00017G27KT SCT006 BKN008 BKN016 12/12 A2944 RMK AO1 PRESFR SLP968
SPECI CYNL 150343Z AUTO 00016G27KT FEW006 SCT008 BKN012 12/12 A2944 RMK AO1 PRESFR SLP968
SPECI CYNL 150342Z AUTO 00014G27KT FEW006 BKN009 BKN016 12/12 A2944 RMK AO1 PRESFR SLP968
SPECI CYNL 150337Z AUTO 00019G28KT FEW006 SCT009 BKN012 12/12 A2944 RMK AO1 PRESFR SLP967
SPECI CYNL 150333Z AUTO 00016G28KT FEW006 BKN009 BKN013 12/12 A2944 RMK AO1 PRESFR SLP967
SPECI CYNL 150326Z AUTO 35018G27KT SCT007 BKN011 BKN016 12/12 A2944 RMK AO1 PRESFR SLP966
METAR CYNL 150300Z AUTO 34015G25KT FEW003 BKN007 OVC013 12/12 A2945 RMK AO1 PRESFR SLP970
SPECI CYNL 150226Z AUTO 33010G17KT SCT003 BKN007 OVC014 13/13 A2948 RMK AO1 PRESFR SLP981
SPECI CYNL 150225Z AUTO 33011G17KT SCT003 OVC014 13/13 A2948 RMK AO1 PRESFR SLP981
SPECI CYNL 150224Z AUTO 33009G18KT SCT003 BKN007 BKN014 13/13 A2949 RMK AO1 PRESFR SLP981
SPECI CYNL 150219Z AUTO 33011G18KT SCT003 BKN014 BKN017 13/13 A2949 RMK AO1 PRESFR SLP983
SPECI CYNL 150213Z AUTO 33010G19KT FEW003 SCT007 BKN015 13/13 A2949 RMK AO1 PRESFR SLP984
SPECI CYNL 150212Z AUTO 32012G19KT FEW003 SCT007 BKN013 13/13 A2949 RMK AO1 PRESFR SLP985
SPECI CYNL 150211Z AUTO 32011G19KT FEW003 SCT007 BKN015 13/13 A2950 RMK AO1 PRESFR SLP985
SPECI CYNL 150209Z AUTO 32010G19KT FEW003 SCT007 BKN012 13/13 A2950 RMK AO1 PRESFR SLP985
METAR CYNL 150200Z AUTO 32011G18KT FEW003 SCT007 BKN016 13/13 A2950 RMK AO1 PRESFR SLP988
SPECI CYNL 150155Z AUTO 31009G19KT FEW003 SCT007 BKN016 13/13 A2951 RMK AO1 PRESFR SLP989
SPECI CYNL 150141Z AUTO 30014G28KT FEW003 BKN007 BKN031 13/12 A2951 RMK AO1 PRESFR SLP992
SPECI CYNL 150139Z AUTO 30017G28KT FEW003 SCT007 BKN016 13/12 A2951 RMK AO1 PRESFR SLP992
METAR CYNL 150100Z AUTO 30017G26KT BKN007 BKN018 OVC032 13/12 A2955 RMK AO1 PRESFR SLP006
SPECI CYNL 150026Z AUTO 32012G21KT BKN008 BKN030 OVC037 12/12 A2958 RMK AO1 PRESFR SLP014
SPECI CYNL 150025Z AUTO 32013G21KT SCT008 BKN015 BKN030 12/12 A2958 RMK AO1 PRESFR SLP014
SPECI CYNL 150017Z AUTO 32010G24KT BKN007 OVC033 12/12 A2958 RMK AO1 PRESFR SLP015
SPECI CYNL 150016Z AUTO 31011G24KT SCT007 BKN014 OVC032 12/12 A2958 RMK AO1 PRESFR SLP015
SPECI CYNL 150014Z AUTO 31013G24KT SCT007 BKN031 OVC049 12/12 A2958 RMK AO1 PRESFR SLP016
SPECI CYNL 150007Z AUTO 31016G24KT VV034 13/12 A2958 RMK AO1 PRESFR SLP016
SPECI CYNL 150006Z AUTO 31016G24KT SCT007 BKN014 OVC037 13/12 A2958 RMK AO1 PRESFR SLP015
METAR CYNL 150000Z AUTO 31010G18KT BKN007 BKN016 OVC023 13/12 A2959 RMK AO1 PRESFR SLP017
SPECI CYNL 142355Z AUTO 31009G23KT BKN007 OVC022 13/12 A2960 RMK AO1 PRESFR SLP019
SPECI CYNL 142351Z AUTO 30009G23KT SCT006 BKN014 BKN022 13/12 A2960 RMK AO1 PRESFR SLP020
SPECI CYNL 142332Z AUTO 32010G19KT FEW007 SCT015 BKN024 13/12 A2961 RMK AO1 PRESFR SLP026
SPECI CYNL 142331Z AUTO 32010G19KT VV032 13/12 A2962 RMK AO1 PRESFR SLP026
SPECI CYNL 142330Z AUTO 32010G19KT SCT008 BKN022 OVC046 13/12 A2962 RMK AO1 PRESFR SLP026
SPECI CYNL 142329Z AUTO 32010G19KT SCT008 BKN034 OVC046 13/12 A2962 RMK AO1 PRESFR SLP027
SPECI CYNL 142326Z AUTO 32012G19KT VV043 13/12 A2962 RMK AO1 PRESFR SLP027
SPECI CYNL 142324Z AUTO 32011G19KT FEW005 SCT009 BKN016 13/12 A2962 RMK AO1 PRESFR SLP027
METAR CYNL 142300Z AUTO 31008G16KT FEW003 BKN008 BKN018 12/12 A2964 RMK AO1 PRESFR SLP033
SPECI CYNL 142205Z AUTO 30009G18KT FEW003 BKN007 OVC031 12/12 A2965 RMK AO1 PRESFR SLP038
SPECI CYNL 142202Z AUTO 31008G18KT SCT003 BKN016 BKN031 12/12 A2965 RMK AO1 PRESFR SLP038
SPECI CYNL 142201Z AUTO 31009G18KT SCT003 BKN007 BKN031 12/12 A2966 RMK AO1 PRESFR SLP038
METAR CYNL 142200Z AUTO 32010G18KT FEW003 SCT007 BKN016 12/12 A2966 RMK AO1 PRESFR SLP039
SPECI CYNL 142159Z AUTO 32010G18KT FEW003 SCT007 BKN017 12/12 A2966 RMK AO1 PRESFR SLP040
SPECI CYNL 142157Z AUTO 31012G18KT SCT003 BKN008 OVC035 12/12 A2966 RMK AO1 SLP041
SPECI CYNL 142156Z AUTO 31011G18KT SCT003 BKN014 OVC036 12/12 A2966 RMK AO1 SLP042
SPECI CYNL 142154Z AUTO 31010G16KT SCT003 BKN018 OVC036 12/12 A2967 RMK AO1 SLP043
SPECI CYNL 142151Z AUTO 31008G16KT SCT004 BKN013 OVC035 12/12 A2967 RMK AO1 SLP044
SPECI CYNL 142146Z AUTO 31008G19KT FEW003 SCT007 BKN016 12/12 A2967 RMK AO1 SLP046
SPECI CYNL 142135Z AUTO 31013KT FEW007 SCT016 OVC034 12/12 A2968 RMK AO1 SLP048
SPECI CYNL 142134Z AUTO 32012G18KT FEW007 SCT016 BKN028 12/12 A2968 RMK AO1 SLP048
SPECI CYNL 142126Z AUTO 32007KT SCT008 BKN019 OVC032 12/12 A2968 RMK AO1 SLP049
SPECI CYNL 142121Z AUTO 32008KT FEW009 SCT017 OVC033 12/12 A2968 RMK AO1 SLP048
SPECI CYNL 142113Z AUTO 32008KT VV030 12/12 A2968 RMK AO1 SLP048
SPECI CYNL 142107Z AUTO 31009KT VV026 12/12 A2968 RMK AO1 SLP048
SPECI CYNL 142106Z AUTO 31008KT SCT009 BKN030 OVC039 12/12 A2968 RMK AO1 SLP048
SPECI CYNL 142105Z AUTO 31007KT SCT009 BKN029 OVC039 12/12 A2968 RMK AO1 SLP048
SPECI CYNL 142104Z AUTO 31008KT SCT009 BKN032 OVC039 12/12 A2968 RMK AO1 SLP048
METAR CYNL 142100Z AUTO 32009G18KT SCT008 BKN028 OVC039 12/12 A2968 RMK AO1 SLP049
SPECI CYNL 142059Z AUTO 32008G18KT SCT008 BKN029 OVC039 12/12 A2968 RMK AO1 SLP049
SPECI CYNL 142058Z AUTO 33007G18KT FEW003 SCT008 BKN014 12/12 A2968 RMK AO1 SLP049
SPECI CYNL 142057Z AUTO 33008G18KT FEW003 SCT008 BKN029 12/12 A2968 RMK AO1 SLP049
SPECI CYNL 142007Z AUTO 32008G18KT FEW006 OVC034 12/12 A2969 RMK AO1 SLP053
METAR CYNL 142000Z AUTO 31012G18KT VV033 12/11 A2969 RMK AO1 SLP052
SPECI CYNL 141919Z AUTO 32011G21KT FEW003 SCT007 OVC033 12/12 A2970 RMK AO1 SLP055
SPECI CYNL 141918Z AUTO 31012G21KT FEW003 SCT007 BKN025 12/12 A2970 RMK AO1 SLP055
SPECI CYNL 141917Z AUTO 32013G21KT FEW003 SCT007 BKN015 12/12 A2970 RMK AO1 SLP055
SPECI CYNL 141916Z AUTO 32014KT FEW003 BKN007 OVC034 12/12 A2970 RMK AO1 SLP055
SPECI CYNL 141914Z AUTO 31009G19KT FEW003 SCT007 BKN014 12/12 A2970 RMK AO1 SLP055
SPECI CYNL 141913Z AUTO 31007G19KT FEW003 SCT007 OVC034 12/12 A2970 RMK AO1 SLP056
SPECI CYNL 141911Z AUTO 31009G21KT FEW003 SCT007 BKN014 12/12 A2970 RMK AO1 SLP056
SPECI CYNL 141908Z AUTO 31009G21KT FEW003 SCT007 OVC033 12/12 A2970 RMK AO1 SLP057
SPECI CYNL 141904Z AUTO 31013G21KT VV032 12/12 A2970 RMK AO1 SLP057
SPECI CYNL 141903Z AUTO 31013G21KT FEW003 SCT007 BKN014 12/12 A2970 RMK AO1 SLP057
METAR CYNL 141900Z AUTO 31010G21KT FEW003 BKN007 OVC031 12/12 A2970 RMK AO1 SLP057
SPECI CYNL 141837Z AUTO 32008G17KT FEW003 BKN007 OVC030 13/12 A2971 RMK AO1 SLP057
METAR CYNL 141800Z AUTO 31007KT 13/13 A2972 RMK AO1 SLP060
METAR CYNL 141700Z AUTO 29009KT 14/14 A2972 RMK AO1 SLP059
SPECI CYNL 141551Z AUTO 11005KT BKN005 OVC009 15/15 A2973 RMK AO1 PRESFR SLP057
SPECI CYNL 141547Z AUTO 11004KT BKN004 BKN006 OVC009 15/15 A2973 RMK AO1 PRESFR SLP058
SPECI CYNL 141545Z AUTO 11004KT FEW003 BKN005 OVC009 15/15 A2973 RMK AO1 PRESFR SLP058
SPECI CYNL 141507Z AUTO 12004KT BKN004 BKN006 OVC009 15/15 A2975 RMK AO1 PRESFR SLP063
METAR CYNL 141500Z AUTO 14002KT SCT004 BKN006 OVC015 15/15 A2975 RMK AO1 PRESFR SLP064
SPECI CYNL 141455Z AUTO 12003KT FEW004 SCT006 BKN009 15/15 A2975 RMK AO1 SLP062
SPECI CYNL 141450Z AUTO 12004KT FEW005 SCT009 OVC015 15/15 A2976 RMK AO1 SLP063
SPECI CYNL 141442Z AUTO 10003KT SCT007 BKN013 BKN018 15/15 A2976 RMK AO1 SLP064
SPECI CYNL 141440Z AUTO 09004KT FEW007 SCT012 BKN016 15/15 A2976 RMK AO1 SLP065
SPECI CYNL 141437Z AUTO 09004KT FEW008 BKN013 OVC020 15/15 A2976 RMK AO1 SLP065
METAR CYNL 141400Z AUTO 04002KT FEW012 BKN015 OVC021 15/14 A2978 RMK AO1 SLP069
SPECI CYNL 141338Z AUTO 34003KT SCT016 BKN018 OVC028 15/13 A2978 RMK AO1 SLP072
SPECI CYNL 141325Z AUTO 00000KT FEW018 OVC029 15/14 A2979 RMK AO1 SLP073
METAR CYNL 141300Z AUTO 00000KT OVC034 15/14 A2979 RMK AO1 SLP075
METAR CYNL 141200Z AUTO 20003KT BKN043 OVC060 16/13 A2981 RMK AO1 SLP079
METAR CYNL 141100Z AUTO 18003KT FEW060 BKN088 17/10 A2980 RMK AO1 SLP075
METAR CYNL 141000Z AUTO 00000KT OVC072 16/11 A2980 RMK AO1 SLP073
METAR CYNL 140900Z AUTO 01002KT FEW064 BKN082 15/10 A2981 RMK AO1 PRESFR SLP081
METAR CYNL 140800Z AUTO 05002KT OVC090 15/10 A2984 RMK AO1 SLP089
METAR CYNL 140700Z AUTO 25004KT 220V280 SCT086 16/10 A2984 RMK AO1 SLP090
METAR CYNL 140600Z AUTO 00000KT CLR 17/09 A2984 RMK AO1 SLP091
METAR CYNL 140500Z AUTO 03005KT FEW110 BKN140 19/09 A2986 RMK AO1 SLP094
METAR CYNL 140400Z AUTO 34004KT OVC088 21/07 A2987 RMK AO1 SLP097
METAR CYNL 140300Z AUTO 00000KT BKN120 24/06 A2987 RMK AO1 SLP095
METAR CYNL 140200Z AUTO 00000KT BKN120 24/05 A2987 RMK AO1 SLP098
METAR CYNL 140100Z AUTO 00000KT BKN110 25/04 A2988 RMK AO1 SLP099
METAR CYNL 140000Z AUTO 31004KT CLR 27/02 A2988 RMK AO1 SLP101
METAR CYNL 132300Z AUTO 24005KT CLR 27/02 A2989 RMK AO1 SLP103
METAR CYNL 132200Z AUTO 27007KT FEW240 26/03 A2989 RMK AO1 SLP106
METAR CYNL 132100Z AUTO 31004KT CLR 25/04 A2989 RMK AO1 SLP108
METAR CYNL 132000Z AUTO 27008KT CLR 26/05 A2990 RMK AO1 WSHFT (19)51 SLP109
SPECI CYNL 131951Z AUTO 33011KT FEW210 26/05 A2990 RMK AO1 WSHFT (19)51 SLP107
METAR CYNL 131900Z AUTO 28007KT CLR 25/05 A2990 RMK AO1 SLP111
METAR CYNL 131700Z AUTO 31008KT FEW120 23/08 A2991 RMK AO1 SLP113
METAR CYNL 131600Z AUTO 25008KT FEW120 21/10 A2991 RMK AO1 SLP114
METAR CYNL 131500Z AUTO 26005KT FEW120 20/09 A2991 RMK AO1 SLP114
METAR CYNL 131400Z AUTO 26008KT FEW150 20/09 A2991 RMK AO1 SLP109
METAR CYNL 131300Z AUTO 25005KT CLR 17/08 A2991 RMK AO1 SLP110
METAR CYNL 131200Z AUTO 29004KT CLR 17/08 A2990 RMK AO1 SLP106
METAR CYNL 131100Z AUTO 29005KT CLR 16/08 A2989 RMK AO1 SLP105
METAR CYNL 131000Z AUTO 30005KT CLR 16/08 A2989 RMK AO1 SLP104
METAR CYNL 130900Z AUTO 30006KT CLR 17/07 A2988 RMK AO1 SLP102
METAR CYNL 130800Z AUTO 29006KT CLR 17/08 A2988 RMK AO1 SLP103
METAR CYNL 130700Z AUTO 31005KT BKN160 18/06 A2988 RMK AO1 SLP098
METAR CYNL 130600Z AUTO 31005KT CLR 19/07 A2987 RMK AO1 SLP098
METAR CYNL 130500Z AUTO 31006KT CLR 20/06 A2986 RMK AO1 SLP093
METAR CYNL 130400Z AUTO 29004KT CLR 20/08 A2985 RMK AO1 SLP089
METAR CYNL 130300Z AUTO 33003KT CLR 24/04 A2983 RMK AO1 SLP080
METAR CYNL 130200Z AUTO 31006KT CLR 26/05 A2983 RMK AO1 SLP078
METAR CYNL 130100Z AUTO 32005KT FEW094 27/04 A2982 RMK AO1 SLP075
METAR CYNL 130000Z AUTO 29007KT FEW086 27/04 A2982 RMK AO1 SLP079
METAR CYNL 122300Z AUTO 30009KT CLR 27/05 A2981 RMK AO1 SLP078
METAR CYNL 122200Z AUTO 29010G16KT FEW078 26/06 A2981 RMK AO1 SLP079
METAR CYNL 122100Z AUTO 30010G15KT FEW076 26/07 A2980 RMK AO1 WSHFT (20)57 SLP076
SPECI CYNL 122057Z AUTO 34010G15KT FEW076 26/07 A2980 RMK AO1 WSHFT (20)57 SLP076
SPECI CYNL 122039Z AUTO 29010G16KT CLR 27/07 A2980 RMK AO1 WSHFT (20)39 SLP076
SPECI CYNL 122021Z AUTO 33013G22KT CLR 26/07 A2980 RMK AO1 WSHFT (20)21 SLP075
METAR CYNL 122000Z AUTO 31009G16KT FEW210 27/07 A2979 RMK AO1 SLP073
METAR CYNL 121900Z AUTO 29010G17KT CLR 26/07 A2979 RMK AO1 SLP074
METAR CYNL 121800Z AUTO 30010KT CLR 25/08 A2979 RMK AO1 SLP072
METAR CYNL 121700Z AUTO 31006KT CLR 24/08 A2979 RMK AO1 SLP073
METAR CYNL 121600Z AUTO 30007KT CLR 24/08 A2978 RMK AO1 SLP071
METAR CYNL 121500Z AUTO 32007KT FEW096 22/09 A2978 RMK AO1 SLP072
METAR CYNL 121400Z AUTO 33009KT FEW090 22/09 A2977 RMK AO1 SLP069
METAR CYNL 121300Z AUTO 34008KT CLR 19/10 A2976 RMK AO1 SLP064
METAR CYNL 121200Z AUTO 32007KT CLR 17/12 A2974 RMK AO1 SLP060
METAR CYNL 121100Z AUTO 00000KT CLR 15/13 A2974 RMK AO1 SLP059
METAR CYNL 121000Z AUTO 00000KT CLR 14/14 A2973 RMK AO1 SLP055
METAR CYNL 120900Z AUTO 28004KT CLR 15/13 A2974 RMK AO1 SLP057
METAR CYNL 120800Z AUTO 00000KT CLR 14/13 A2975 RMK AO1 SLP061
METAR CYNL 120700Z AUTO 26003KT CLR 15/14 A2975 RMK AO1 SLP060
METAR CYNL 120600Z AUTO 00000KT BKN068 BKN100 16/14 A2976 RMK AO1 SLP063
METAR CYNL 120500Z AUTO 00000KT FEW086 16/13 A2976 RMK AO1 SLP065
METAR CYNL 120400Z AUTO 00000KT SCT084 BKN240 17/14 A2976 RMK AO1 SLP061
METAR CYNL 120300Z AUTO 07003KT FEW230 18/14 A2975 RMK AO1 SLP058
METAR CYNL 120200Z AUTO 09011G16KT CLR 19/12 A2975 RMK AO1 SLP058
METAR CYNL 120100Z AUTO 12009KT CLR 21/12 A2974 RMK AO1 SLP054
METAR CYNL 120000Z AUTO 11006KT CLR 22/12 A2974 RMK AO1 SLP056
METAR CYNL 112300Z AUTO 10009KT CLR 23/14 A2975 RMK AO1 SLP058
METAR CYNL 112200Z AUTO 11006KT 24/13 A2974 RMK AO1 SLP056
METAR CYNL 112000Z AUTO 12010KT FEW210 24/12 A2975 RMK AO1 SLP060
METAR CYNL 111900Z AUTO 12008KT FEW190 24/11 A2976 RMK AO1 SLP065
METAR CYNL 111800Z AUTO 12008KT FEW180 24/11 A2977 RMK AO1 SLP067
METAR CYNL 111700Z AUTO 15007KT FEW220 24/11 A2977 RMK AO1 SLP067
METAR CYNL 111600Z AUTO 13004KT CLR 22/13 A2979 RMK AO1 SLP071
METAR CYNL 111500Z AUTO 12006KT SCT080 22/13 A2979 RMK AO1 SLP070
METAR CYNL 111400Z AUTO 05002KT FEW140 21/14 A2979 RMK AO1 SLP069
METAR CYNL 111300Z AUTO 08002KT FEW130 20/13 A2981 RMK AO1 PRESFR SLP074
METAR CYNL 111200Z AUTO 00000KT FEW130 18/13 A2983 RMK AO1 SLP083
METAR CYNL 111100Z AUTO 17003KT CLR 16/13 A2984 RMK AO1 SLP086
METAR CYNL 111000Z AUTO 25004KT SCT130 15/13 A2984 RMK AO1 SLP087
METAR CYNL 110900Z AUTO 18002KT CLR 15/12 A2985 RMK AO1 SLP091
METAR CYNL 110800Z AUTO 00000KT CLR 14/13 A2986 RMK AO1 SLP095
METAR CYNL 110700Z AUTO 00000KT CLR 15/13 A2987 RMK AO1 SLP098
METAR CYNL 110600Z AUTO 00000KT CLR 17/14 A2988 RMK AO1 SLP100
METAR CYNL 110500Z AUTO 23003KT CLR 19/14 A2989 RMK AO1 SLP102
METAR CYNL 110400Z AUTO 21004KT CLR 21/14 A2989 RMK AO1 SLP103
SPECI CYNL 110311Z AUTO 23012G19KT FEW009 SCT074 22/13 A2989 RMK AO1 SLP104
METAR CYNL 110300Z AUTO 20012G22KT FEW076 SCT094 25/10 A2989 RMK AO1 SLP100
METAR CYNL 110200Z AUTO 21004KT CLR 26/10 A2988 RMK AO1 SLP099
METAR CYNL 110100Z AUTO 21009KT CLR 27/09 A2989 RMK AO1 SLP101
METAR CYNL 110000Z AUTO 22009G15KT CLR 28/09 A2989 RMK AO1 PRESFR SLP105
METAR CYNL 102300Z AUTO 20009G17KT CLR 28/09 A2991 RMK AO1 SLP114
METAR CYNL 102200Z AUTO 22008KT CLR 28/09 A2993 RMK AO1 SLP121
SPECI CYNL 102134Z AUTO 23010G17KT FEW076 28/09 A2994 RMK AO1 WSHFT (21)34 SLP124
METAR CYNL 102100Z AUTO 19012KT FEW076 27/08 A2995 RMK AO1 SLP126
SPECI CYNL 102007Z AUTO 21012KT CLR 27/07 A2996 RMK AO1 WSHFT (20)07 SLP130
METAR CYNL 102000Z AUTO 19008G19KT FEW120 28/07 A2996 RMK AO1 SLP130
METAR CYNL 101900Z AUTO 25008G16KT FEW210 27/08 A2997 RMK AO1 PRESFR SLP136
METAR CYNL 101800Z AUTO 20009KT CLR 26/09 A3000 RMK AO1 SLP144
METAR CYNL 101700Z AUTO 23010KT CLR 25/11 A3001 RMK AO1 SLP147
METAR CYNL 101600Z AUTO 21009KT CLR 23/10 A3001 RMK AO1 SLP151
METAR CYNL 101500Z AUTO 22007KT CLR 21/11 A3002 RMK AO1 SLP153
METAR CYNL 101400Z AUTO 20005KT CLR 19/11 A3003 RMK AO1 SLP153
METAR CYNL 101300Z AUTO 18004KT CLR 17/11 A3003 RMK AO1 SLP154
METAR CYNL 101200Z AUTO 00000KT CLR 15/11 A3003 RMK AO1 SLP155
METAR CYNL 101100Z AUTO 00000KT CLR 13/09 A3003 RMK AO1 SLP158
METAR CYNL 101000Z AUTO 24003KT CLR 14/09 A3004 RMK AO1 SLP159
METAR CYNL 100900Z AUTO 23003KT CLR 14/10 A3004 RMK AO1 SLP158
METAR CYNL 100800Z AUTO 23003KT CLR 13/10 A3003 RMK AO1 SLP159
METAR CYNL 100700Z AUTO 23002KT CLR 14/10 A3003 RMK AO1 SLP157
METAR CYNL 100600Z AUTO 20004KT CLR 16/08 A3003 RMK AO1 SLP156
METAR CYNL 100500Z AUTO 00000KT CLR 15/09 A3002 RMK AO1 SLP157
METAR CYNL 100400Z AUTO 00000KT CLR 19/10 A3002 RMK AO1 SLP151
METAR CYNL 100300Z AUTO 20002KT CLR 23/07 A3001 RMK AO1 SLP147
METAR CYNL 100200Z AUTO 21005KT CLR 24/06 A3002 RMK AO1 SLP149
METAR CYNL 100100Z AUTO 23008KT CLR 24/06 A3002 RMK AO1 SLP153
METAR CYNL 100000Z AUTO 23011G17KT CLR 25/06 A3003 RMK AO1 SLP157
METAR CYNL 092300Z AUTO 24010G18KT CLR 25/06 A3004 RMK AO1 SLP161
METAR CYNL 092200Z AUTO 22009G16KT CLR 25/06 A3004 RMK AO1 SLP164
METAR CYNL 092100Z AUTO 20009KT CLR 25/06 A3004 RMK AO1 SLP164
METAR CYNL 092000Z AUTO 20008KT FEW150 24/07 A3006 RMK AO1 SLP169
METAR CYNL 091900Z AUTO 23006KT FEW190 22/07 A3006 RMK AO1 SLP172
METAR CYNL 091800Z AUTO 21006KT CLR 21/07 A3007 RMK AO1 SLP175
METAR CYNL 091700Z AUTO 22008KT 190V260 CLR 20/08 A3008 RMK AO1 SLP177
METAR CYNL 091600Z AUTO 24005KT CLR 19/09 A3008 RMK AO1 SLP178
METAR CYNL 091500Z AUTO 23004KT CLR 17/09 A3007 RMK AO1 SLP178
METAR CYNL 091400Z AUTO 30003KT CLR 16/09 A3006 RMK AO1 SLP173
METAR CYNL 091300Z AUTO 28003KT CLR 13/09 A3004 RMK AO1 SLP172
METAR CYNL 091200Z AUTO 28005KT CLR 12/08 A3003 RMK AO1 SLP170
METAR CYNL 091100Z AUTO 26003KT CLR 11/08 A3002 RMK AO1 PRESRR SLP167
METAR CYNL 091000Z AUTO 27005KT CLR 12/08 A3000 RMK AO1 SLP159
METAR CYNL 090900Z AUTO 26003KT CLR 12/08 A2999 RMK AO1 SLP154
METAR CYNL 090800Z AUTO 27006KT CLR 13/08 A2997 RMK AO1 PRESRR SLP150
METAR CYNL 090700Z AUTO 26004KT SCT054 14/08 A2995 RMK AO1 SLP142
METAR CYNL 090600Z AUTO 28008KT CLR 15/07 A2993 RMK AO1 SLP133
METAR CYNL 090500Z AUTO 28008KT FEW070 15/07 A2992 RMK AO1 PRESRR SLP127
METAR CYNL 090400Z AUTO 28008KT BKN074 16/08 A2989 RMK AO1 SLP120
METAR CYNL 090300Z AUTO 27006KT BKN064 16/08 A2987 RMK AO1 SLP114
METAR CYNL 090200Z AUTO 28007KT BKN060 16/08 A2986 RMK AO1 SLP110
METAR CYNL 090100Z AUTO 28009G21KT SCT100 16/07 A RMK AO1 SLPNO
METAR CYNL 090000Z AUTO 29010G21KT OVC050 15/07 A RMK AO1 SLPNO
METAR CYNL 082300Z AUTO 28009G16KT FEW042 SCT062 16/07 A RMK AO1 SLPNO
METAR CYNL 082200Z AUTO 28011G18KT BKN040 14/08 A RMK AO1 SLPNO
METAR CYNL 082100Z AUTO 26006G16KT OVC042 13/09 A RMK AO1 SLPNO
METAR CYNL 082000Z AUTO 25012G20KT OVC040 13/08 A RMK AO1 SLPNO
METAR CYNL 081900Z AUTO 26011G23KT FEW031 14/05 A RMK AO1 SLPNO
METAR CYNL 081800Z AUTO 26012G25KT FEW200 15/04 A RMK AO1 SLPNO
METAR CYNL 081700Z AUTO 27015G21KT FEW043 14/02 A RMK AO1 SLPNO
METAR CYNL 081600Z AUTO 26015G24KT SCT043 13/02 A RMK AO1 SLPNO
METAR CYNL 081500Z AUTO 25014G22KT FEW029 BKN048 12/04 A RMK AO1 SLPNO
METAR CYNL 081400Z AUTO 27010G19KT FEW024 BKN052 A RMK AO1 SLPNO
SPECI CYNL 081314Z AUTO 29012G18KT SCT021 BKN060 A RMK AO1 SLPNO
SPECI CYNL 081312Z AUTO 28011G18KT SCT021 BKN027 A RMK AO1 SLPNO
SPECI CYNL 081302Z AUTO 29011G19KT BKN020 BKN062 A RMK AO1 SLPNO
METAR CYNL 081300Z AUTO 28011G19KT SCT019 BKN027 A RMK AO1 SLPNO
SPECI CYNL 081231Z AUTO 27007KT SCT019 BKN039 A RMK AO1 SLPNO
SPECI CYNL 081229Z AUTO 27010KT SCT019 BKN026 A RMK AO1 SLPNO
SPECI CYNL 081227Z AUTO 28008KT BKN019 A RMK AO1 SLPNO
SPECI CYNL 081224Z AUTO 27010KT SCT019 BKN026 A RMK AO1 SLPNO
METAR CYNL 081200Z AUTO 28009KT FEW045 SCT072 A RMK AO1 SLPNO
SPECI CYNL 081103Z AUTO 28006KT SCT031 A RMK AO1 SLPNO
METAR CYNL 081100Z AUTO 28006KT VV029 A RMK AO1 SLPNO
SPECI CYNL 081059Z AUTO 28006KT VV029 A RMK AO1 SLPNO
METAR CYNL 081000Z AUTO 27006KT FEW064 SCT110 A RMK AO1 SLPNO
METAR CYNL 080900Z AUTO 28004KT FEW032 BKN041 A RMK AO1 SLPNO
METAR CYNL 080800Z AUTO 26004KT SCT046 A RMK AO1 SLPNO
METAR CYNL 080700Z AUTO 29006KT CLR A RMK AO1 SLPNO
METAR CYNL 080600Z AUTO 32005KT FEW035 SCT052 A RMK AO1 SLPNO
SPECI CYNL 080509Z AUTO 33008G17KT VV030 A RMK AO1 SLPNO
SPECI CYNL 080504Z AUTO 33011G17KT VV025 A RMK AO1 SLPNO
SPECI CYNL 080502Z AUTO 32008KT FEW011 SCT028 BKN039 A RMK AO1 SLPNO
SPECI CYNL 080501Z AUTO 32008KT VV025 A RMK AO1 SLPNO
METAR CYNL 080500Z AUTO 33008KT FEW018 SCT033 BKN042 A RMK AO1 SLPNO
METAR CYNL 080400Z AUTO 33007KT BKN035 A RMK AO1 SLPNO
SPECI CYNL 080333Z AUTO 33008KT FEW011 SCT022 BKN030 A RMK AO1 SLPNO
SPECI CYNL 080319Z AUTO 33008G17KT SCT010 BKN015 BKN021 A RMK AO1 SLPNO
SPECI CYNL 080311Z AUTO 34012G17KT BKN010 BKN032 A RMK AO1 SLPNO
METAR CYNL 080300Z AUTO 33010KT A RMK AO1 SLPNO
METAR CYNL 080200Z AUTO 34011G18KT A RMK AO1 SLPNO
METAR CYNL 080100Z AUTO 33010G20KT A RMK AO1 SLPNO
METAR CYNL 080000Z AUTO 33014G21KT SCT014 BKN023 BKN029 A RMK AO1 SLPNO
SPECI CYNL 072348Z AUTO 32013G22KT BKN023 BKN044 A RMK AO1 SLPNO
SPECI CYNL 072346Z AUTO 32012G22KT SCT023 BKN028 A RMK AO1 SLPNO
SPECI CYNL 072341Z AUTO 32015G22KT BKN023 A RMK AO1 SLPNO
METAR CYNL 072300Z AUTO 30011G23KT FEW033 A RMK AO1 SLPNO
METAR CYNL 072200Z AUTO 29017G26KT FEW064 A RMK AO1 SLPNO
METAR CYNL 072100Z AUTO 26014G22KT FEW034 A RMK AO1 SLPNO
METAR CYNL 072000Z AUTO 27014G21KT FEW044 SCT160 A RMK AO1 SLPNO
SPECI CYNL 071913Z AUTO 26011G25KT 9SM FEW050 A RMK AO1 WSHFT (19)13 SLPNO
METAR CYNL 071900Z AUTO 28012G22KT 9SM FEW210 A RMK AO1 SLPNO
METAR CYNL 071800Z AUTO 29012G21KT 9SM CLR A RMK AO1 WSHFT (17)47 SLPNO
SPECI CYNL 071747Z AUTO 29014G22KT 9SM CLR A RMK AO1 WSHFT (17)47 SLPNO
METAR CYNL 071700Z AUTO 27008G20KT 9SM CLR A RMK AO1 SLPNO
METAR CYNL 071600Z AUTO 25010G20KT 9SM CLR A RMK AO1 SLPNO
METAR CYNL 071500Z AUTO 26010G15KT 9SM CLR A RMK AO1 SLPNO
METAR CYNL 071400Z AUTO 24009KT 9SM FEW072 A RMK AO1 SLPNO
METAR CYNL 071300Z AUTO 25005KT 9SM CLR A RMK AO1 SLPNO
METAR CYNL 071200Z AUTO 22006KT 9SM CLR A RMK AO1 SLPNO
METAR CYNL 071100Z AUTO 21004KT 9SM A RMK AO1 SLPNO
METAR CYNL 070900Z AUTO 23005KT 9SM CLR A RMK AO1 SLPNO
METAR CYNL 070800Z AUTO 25004KT 9SM CLR A RMK AO1 SLPNO
METAR CYNL 070700Z AUTO 23003KT 9SM CLR A RMK AO1 SLPNO
METAR CYNL 070600Z AUTO 19003KT 9SM CLR A RMK AO1 SLPNO
METAR CYNL 070500Z AUTO 21003KT 9SM CLR A RMK AO1 SLPNO
METAR CYNL 070400Z AUTO 27003KT 9SM CLR A RMK AO1 SLPNO
METAR CYNL 070300Z AUTO 00000KT 9SM CLR A RMK AO1 SLPNO
METAR CYNL 070200Z AUTO 00000KT 9SM SCT110 A RMK AO1 SLPNO
METAR CYNL 070100Z AUTO 20003KT 9SM CLR A RMK AO1 SLPNO
METAR CYNL 070000Z AUTO 23005KT 9SM FEW130 A RMK AO1 SLPNO
METAR CYNL 062300Z AUTO 21009KT 9SM CLR A RMK AO1 SLPNO
METAR CYNL 062200Z AUTO 22009G18KT 9SM CLR A RMK AO1 SLPNO
SPECI CYNL 062143Z AUTO 20012G19KT 9SM CLR A RMK AO1 WSHFT (21)43 SLPNO
METAR CYNL 062100Z AUTO 22007KT 9SM CLR A RMK AO1 SLPNO
METAR CYNL 062000Z AUTO 21007G16KT 9SM CLR A RMK AO1 SLPNO
METAR CYNL 061900Z AUTO 23014G21KT 9SM FEW210 A RMK AO1 SLPNO
METAR CYNL 061800Z AUTO 20009G16KT 9SM CLR A RMK AO1 SLPNO
SPECI CYNL 061717Z AUTO 18013KT 9SM CLR A RMK AO1 WSHFT (17)17 SLPNO
METAR CYNL 061700Z AUTO 19014G19KT 9SM CLR A RMK AO1 SLPNO
METAR CYNL 061600Z AUTO 20011G16KT 9SM CLR A RMK AO1 SLPNO
METAR CYNL 061500Z AUTO 22007KT 9SM CLR A RMK AO1 SLPNO
METAR CYNL 061400Z AUTO 21008KT 9SM CLR A RMK AO1 SLPNO
METAR CYNL 061300Z AUTO 22010KT 9SM CLR A RMK AO1 SLPNO
METAR CYNL 061200Z AUTO 22007KT 9SM SCT088 BKN230 A RMK AO1 SLPNO
METAR CYNL 061100Z AUTO 21006KT 9SM FEW080 A RMK AO1 SLPNO
METAR CYNL 061000Z AUTO 21007KT 9SM CLR A RMK AO1 SLPNO
METAR CYNL 060900Z AUTO 21006KT 9SM CLR A RMK AO1 SLPNO
METAR CYNL 060800Z AUTO 22007KT 9SM CLR A RMK AO1 SLPNO
METAR CYNL 060700Z AUTO 22006KT 9SM CLR A RMK AO1 SLPNO
METAR CYNL 060600Z AUTO 22007KT 9SM CLR A RMK AO1 SLPNO
METAR CYNL 060500Z AUTO 22005KT 9SM CLR A RMK AO1 SLPNO
METAR CYNL 060400Z AUTO 22006KT 9SM CLR A RMK AO1 SLPNO
METAR CYNL 060300Z AUTO 21006KT 9SM FEW096 A RMK AO1 SLPNO
METAR CYNL 060200Z AUTO 22009KT 9SM CLR A RMK AO1 SLPNO
METAR CYNL 060100Z AUTO 23011G16KT 9SM CLR A RMK AO1 SLPNO
METAR CYNL 060000Z AUTO 22013G18KT 9SM CLR A RMK AO1 SLPNO
METAR CYNL 052300Z AUTO 25008G18KT 9SM CLR A RMK AO1 SLPNO
METAR CYNL 052200Z AUTO 27010KT 9SM FEW082 A RMK AO1 SLPNO
METAR CYNL 052100Z AUTO 26010G16KT 9SM FEW080 A RMK AO1 WSHFT (20)47 SLPNO
SPECI CYNL 052047Z AUTO 23010G17KT 9SM CLR A RMK AO1 WSHFT (20)47 SLPNO
METAR CYNL 052000Z AUTO 27007G16KT 9SM CLR A RMK AO1 SLPNO
METAR CYNL 051900Z AUTO 27011KT 9SM CLR A RMK AO1 SLPNO
METAR CYNL 051800Z AUTO 29010G17KT 9SM CLR A RMK AO1 SLPNO
METAR CYNL 051700Z AUTO 26011KT 9SM CLR A RMK AO1 SLPNO
METAR CYNL 051600Z AUTO 28011G16KT 9SM CLR A RMK AO1 SLPNO
METAR CYNL 051500Z AUTO 27009G16KT 9SM CLR A RMK AO1 SLPNO
METAR CYNL 051400Z AUTO 27006KT 9SM CLR A RMK AO1 SLPNO
METAR CYNL 051300Z AUTO 26005KT 9SM CLR A RMK AO1 SLPNO
METAR CYNL 051200Z AUTO 26005KT 9SM CLR A RMK AO1 SLPNO
METAR CYNL 051100Z AUTO 28005KT 9SM CLR A RMK AO1 SLPNO
METAR CYNL 051000Z AUTO 29005KT 9SM CLR A RMK AO1 SLPNO
METAR CYNL 050900Z AUTO 28005KT 9SM CLR A RMK AO1 SLPNO
METAR CYNL 050800Z AUTO 28006KT 9SM CLR A RMK AO1 SLPNO
METAR CYNL 050700Z AUTO 29004KT 9SM FEW072 BKN090 BKN110 A RMK AO1 SLPNO
METAR CYNL 050600Z AUTO 29003KT 9SM BKN100 A RMK AO1 SLPNO
METAR CYNL 050500Z AUTO 27007G16KT 5SM FEW029 SCT050 BKN062 A RMK AO1 SLPNO
SPECI CYNL 050459Z AUTO 27009G16KT 3SM FEW029 SCT050 BKN062 A RMK AO1 SLPNO
SPECI CYNL 050456Z AUTO 27008G16KT 2 1/2SM FEW029 BKN062 A RMK AO1 SLPNO
METAR CYNL 050400Z AUTO 32003G17KT 9SM FEW068 A RMK AO1 SLPNO
METAR CYNL 050300Z AUTO 33004KT 9SM SCT068 A RMK AO1 SLPNO
METAR CYNL 050200Z AUTO 01004KT 9SM FEW022 A RMK AO1 SLPNO
METAR CYNL 050100Z AUTO 35007KT 9SM FEW052 A RMK AO1 SLPNO
METAR CYNL 050000Z AUTO 34007KT 9SM SCT094 A RMK AO1 SLPNO
METAR CYNL 042300Z AUTO 32012G18KT 9SM FEW062 A RMK AO1 SLPNO
SPECI CYNL 042217Z AUTO 33011G21KT 9SM FEW088 A RMK AO1 WSHFT (22)17 SLPNO
METAR CYNL 042200Z AUTO 29014G22KT 9SM CLR A RMK AO1 SLPNO
METAR CYNL 042100Z AUTO 35008G17KT 9SM FEW200 A RMK AO1 SLPNO
METAR CYNL 042000Z AUTO 35009G15KT 9SM CLR A RMK AO1 SLPNO
METAR CYNL 041900Z AUTO 31006KT 9SM FEW044 A RMK AO1 SLPNO
METAR CYNL 041800Z AUTO 00007KT 9SM FEW052 A RMK AO1 SLPNO
METAR CYNL 041700Z AUTO 29004KT 9SM SCT050 A RMK AO1 SLPNO
METAR CYNL 041600Z AUTO 29004KT 9SM SCT058 A RMK AO1 SLPNO
METAR CYNL 041500Z AUTO 00000KT 9SM FEW078 A RMK AO1 SLPNO
METAR CYNL 041400Z AUTO 00000KT 9SM FEW015 BKN058 A RMK AO1 SLPNO
SPECI CYNL 041311Z AUTO 08004KT 8SM FEW007 SCT066 A RMK AO1 SLPNO
METAR CYNL 041300Z AUTO 07004KT 9SM BKN066 A RMK AO1 SLPNO
METAR CYNL 041200Z AUTO 00000KT 9SM CLR A RMK AO1 SLPNO
METAR CYNL 041100Z AUTO 35002KT 9SM SCT076 A RMK AO1 SLPNO
METAR CYNL 041000Z AUTO VRB03KT 9SM OVC078 A RMK AO1 SLPNO
METAR CYNL 040900Z AUTO 05002KT 9SM BKN076 A RMK AO1 SLPNO
METAR CYNL 040800Z AUTO 07003KT 9SM BKN180 A RMK AO1 SLPNO
METAR CYNL 040700Z AUTO 00000KT 9SM FEW190 A RMK AO1 SLPNO
METAR CYNL 040600Z AUTO 13003KT 9SM FEW180 SCT200 A RMK AO1 SLPNO
METAR CYNL 040500Z AUTO 10002KT 9SM CLR A RMK AO1 SLPNO
METAR CYNL 040400Z AUTO 10005KT 9SM CLR A RMK AO1 SLPNO
METAR CYNL 040300Z AUTO 10005KT 9SM CLR A RMK AO1 SLPNO
METAR CYNL 040200Z AUTO 11007KT 9SM CLR A RMK AO1 SLPNO
METAR CYNL 040100Z AUTO 09007KT 9SM CLR A RMK AO1 SLPNO
METAR CYNL 040000Z AUTO 11008KT 9SM CLR A RMK AO1 SLPNO
METAR CYNL 032300Z AUTO 10010KT 9SM CLR A RMK AO1 SLPNO
SPECI CYNL 032221Z AUTO 08010KT 9SM CLR A RMK AO1 WSHFT (22)21 SLPNO
METAR CYNL 032200Z AUTO 08006KT 9SM CLR A RMK AO1 SLPNO
METAR CYNL 032100Z AUTO 07009G16KT 9SM CLR A RMK AO1 SLPNO
METAR CYNL 032000Z AUTO 10006KT 9SM CLR A RMK AO1 SLPNO
METAR CYNL 031900Z AUTO 08009KT 050V120 9SM CLR A RMK AO1 SLPNO
METAR CYNL 031800Z AUTO 06007KT 9SM CLR A RMK AO1 SLPNO
METAR CYNL 031700Z AUTO 04009KT 9SM CLR A RMK AO1 SLPNO
METAR CYNL 031600Z AUTO 09009G16KT 9SM FEW120 A RMK AO1 SLPNO
METAR CYNL 031500Z AUTO 09005KT 9SM A RMK AO1 SLPNO
METAR CYNL 031400Z AUTO 08006KT 9SM FEW120 A RMK AO1 SLPNO
METAR CYNL 031300Z AUTO 10006KT 9SM FEW120 A RMK AO1 SLPNO
METAR CYNL 031200Z AUTO 07006KT 9SM FEW058 A RMK AO1 SLPNO
METAR CYNL 031100Z AUTO 05007KT 9SM CLR 09/05 A3008 RMK AO1 SLP187
METAR CYNL 031000Z AUTO 06005KT 9SM BKN060 10/07 A3007 RMK AO1 SLP180
METAR CYNL 030900Z AUTO 06006KT 9SM OVC058 11/06 A3006 RMK AO1 SLP177
METAR CYNL 030800Z AUTO 06007KT 9SM CLR 11/06 A3005 RMK AO1 SLP174
METAR CYNL 030700Z AUTO 05005KT 9SM SCT076 13/07 A3004 RMK AO1 SLP169
METAR CYNL 030600Z AUTO 07003KT 9SM BKN056 OVC070 14/08 A3002 RMK AO1 SLP163
METAR CYNL 030500Z AUTO 07004KT 9SM SCT046 OVC058 14/07 A3001 RMK AO1 PRESRR SLP157
METAR CYNL 030400Z AUTO 03003KT 9SM OVC064 15/09 A2998 RMK AO1 SLP151
METAR CYNL 030300Z AUTO 07004KT 9SM SCT062 BKN078 16/08 A2997 RMK AO1 SLP147
METAR CYNL 030200Z AUTO 10006KT 9SM SCT074 17/08 A2996 RMK AO1 PRESRR SLP140
METAR CYNL 030100Z AUTO 08006KT 9SM SCT078 17/07 A2993 RMK AO1 SLP132
METAR CYNL 030000Z AUTO 09008KT 9SM SCT076 18/07 A2992 RMK AO1 SLP126
METAR CYNL 022300Z AUTO 09009KT 9SM FEW062 19/07 A2990 RMK AO1 SLP120
METAR CYNL 022200Z AUTO 15004KT 9SM FEW041 19/08 A2989 RMK AO1 SLP116
METAR CYNL 022100Z AUTO 09006KT 9SM FEW038 17/08 A2988 RMK AO1 SLP117
METAR CYNL 022000Z AUTO 13007KT 9SM FEW036 SCT054 BKN180 17/08 A2987 RMK AO1 SLP113
METAR CYNL 021900Z AUTO 08007KT 9SM OVC036 16/08 A2986 RMK AO1 SLP110
METAR CYNL 021800Z AUTO 12004KT 060V180 9SM SCT032 BKN058 16/09 A2985 RMK AO1 SLP105
METAR CYNL 021700Z AUTO 04004KT 9SM FEW018 BKN049 14/11 A2984 RMK AO1 SLP104
METAR CYNL 021600Z AUTO 08003KT 9SM FEW028 OVC038 13/10 A2983 RMK AO1 SLP100
METAR CYNL 021500Z AUTO 11007KT 9SM BKN036 BKN210 13/10 A2981 RMK AO1 SLP095
METAR CYNL 021400Z AUTO 09005KT 9SM BKN034 13/10 A2980 RMK AO1 SLP090
METAR CYNL 021300Z AUTO 09005KT 9SM BKN037 OVC048 13/10 A2979 RMK AO1 SLP086
METAR CYNL 021200Z AUTO 08006KT 9SM SCT054 BKN096 12/11 A2978 RMK AO1 SLP082
METAR CYNL 021100Z AUTO 06005KT 9SM FEW040 SCT050 BKN082 12/10 A2977 RMK AO1 SLP078
METAR CYNL 021000Z AUTO 08006KT 9SM OVC082 12/10 A2976 RMK AO1 SLP075
METAR CYNL 020900Z AUTO 08005KT 9SM FEW039 OVC080 12/11 A2975 RMK AO1 SLP074
METAR CYNL 020800Z AUTO 06003KT 9SM BKN052 BKN076 12/11 A2976 RMK AO1 SLP074
METAR CYNL 020700Z AUTO 08004KT 9SM FEW040 OVC072 13/10 A2975 RMK AO1 SLP073
METAR CYNL 020600Z AUTO 08005KT 9SM OVC036 13/11 A2975 RMK AO1 SLP071
METAR CYNL 020500Z AUTO 10006KT 9SM BKN031 OVC054 13/11 A2974 RMK AO1 SLP071
METAR CYNL 020400Z AUTO 09006KT 9SM FEW058 BKN070 13/11 A2974 RMK AO1 SLP070
METAR CYNL 020300Z AUTO 09006KT 9SM FEW049 SCT074 14/11 A2973 RMK AO1 SLP067
METAR CYNL 020200Z AUTO 10008KT 9SM SCT018 BKN045 15/11 A2973 RMK AO1 SLP065
SPECI CYNL 020159Z AUTO 10007KT 9SM SCT018 BKN045 15/11 A2973 RMK AO1 SLP065
SPECI CYNL 020144Z AUTO 10005KT 9SM SCT017 BKN022 15/11 A2973 RMK AO1 SLP065
SPECI CYNL 020139Z AUTO 10007KT 9SM SCT018 15/11 A2973 RMK AO1 SLP064
SPECI CYNL 020130Z AUTO 12009KT 9SM SCT017 BKN023 15/11 A2972 RMK AO1 SLP063
SPECI CYNL 020119Z AUTO 09009KT 9SM FEW016 SCT021 15/12 A2972 RMK AO1 SLP062
SPECI CYNL 020116Z AUTO 10009KT 9SM SCT016 BKN027 15/11 A2972 RMK AO1 SLP062
SPECI CYNL 020107Z AUTO 11010KT 9SM SCT017 BKN023 15/12 A2973 RMK AO1 SLP064
METAR CYNL 020100Z AUTO 10009KT 9SM SCT016 BKN026 15/11 A2973 RMK AO1 SLP064
SPECI CYNL 020055Z AUTO 10007KT 9SM SCT016 BKN025 15/12 A2973 RMK AO1 SLP065
SPECI CYNL 020039Z AUTO 11009KT 9SM FEW017 SCT024 15/12 A2972 RMK AO1 SLP063
METAR CYNL 020000Z AUTO 09011KT 9SM BKN018 15/12 A2972 RMK AO1 SLP060
SPECI CYNL 012354Z AUTO 10008KT 9SM SCT018 BKN023 16/12 A2972 RMK AO1 SLP061
METAR CYNL 012300Z AUTO 08011G18KT 9SM FEW012 SCT030 16/12 A2970 RMK AO1 SLP057
SPECI CYNL 012219Z AUTO 08012KT 9SM SCT027 15/12 A2970 RMK AO1 SLP057
METAR CYNL 012200Z AUTO 08010KT 9SM FEW013 OVC025 15/12 A2970 RMK AO1 SLP055
SPECI CYNL 012157Z AUTO 08010KT 9SM FEW013 OVC025 15/12 A2970 RMK AO1 SLP056
METAR CYNL 012100Z AUTO 11007KT 9SM SCT015 OVC021 15/12 A2970 RMK AO1 SLP055
SPECI CYNL 012043Z AUTO 11009KT 9SM BKN015 OVC022 15/12 A2970 RMK AO1 SLP055
SPECI CYNL 012038Z AUTO 10009KT 9SM BKN014 OVC020 15/12 A2969 RMK AO1 SLP054
SPECI CYNL 012030Z AUTO 10008KT 9SM FEW012 BKN016 OVC021 15/12 A2970 RMK AO1 SLP054
SPECI CYNL 012028Z AUTO 11006KT 9SM FEW009 BKN012 OVC018 15/12 A2970 RMK AO1 SLP054
SPECI CYNL 012027Z AUTO 10008KT 9SM FEW009 SCT012 OVC017 15/12 A2970 RMK AO1 SLP054
SPECI CYNL 012020Z AUTO 12007KT 9SM FEW009 BKN012 OVC017 15/12 A2970 RMK AO1 SLP055
SPECI CYNL 012019Z AUTO 12007KT 9SM SCT009 BKN015 OVC018 15/12 A2970 RMK AO1 SLP054
SPECI CYNL 012017Z AUTO 11008KT 9SM SCT009 BKN014 OVC018 15/13 A2970 RMK AO1 SLP054
SPECI CYNL 012016Z AUTO 11009KT 9SM SCT009 OVC016 15/12 A2970 RMK AO1 SLP054
SPECI CYNL 012011Z AUTO 11008KT 9SM SCT009 BKN012 OVC016 15/12 A2970 RMK AO1 SLP055
METAR CYNL 012000Z AUTO 12006KT 9SM OVC009 15/12 A2970 RMK AO1 SLP056
METAR CYNL 011900Z AUTO 13010KT 9SM BKN009 OVC011 14/12 A2971 RMK AO1 SLP060
METAR CYNL 011800Z AUTO 13008KT 9SM OVC005 13/13 A2972 RMK AO1 SLP065
SPECI CYNL 011748Z AUTO 13008KT 9SM SCT003 BKN005 OVC007 13/12 A2972 RMK AO1 SLP066
SPECI CYNL 011713Z AUTO 13008KT 9SM OVC003 13/13 A2972 RMK AO1 SLP065
SPECI CYNL 011709Z AUTO 13007KT 9SM OVC002 13/13 A2972 RMK AO1 SLP065
METAR CYNL 011700Z AUTO 12006KT 9SM OVC003 13/13 A2972 RMK AO1 SLP064
METAR CYNL 011600Z AUTO 13005KT 6SM BKN004 OVC031 12/12 A2971 RMK AO1 SLP063
SPECI CYNL 011553Z AUTO 12006KT 3SM BKN004 BKN031 OVC048 12/12 A2971 RMK AO1 SLP062
SPECI CYNL 011551Z AUTO 13006KT 2 1/2SM SCT004 BKN013 BKN031 12/12 A2971 RMK AO1 SLP062
SPECI CYNL 011549Z AUTO 12006KT 3SM BKN004 BKN031 OVC048 12/12 A2971 RMK AO1 SLP062
SPECI CYNL 011548Z AUTO 12006KT 3SM VV029 12/12 A2971 RMK AO1 SLP062
SPECI CYNL 011546Z AUTO 12006KT 2 1/2SM VV027 12/12 A2971 RMK AO1 SLP062
SPECI CYNL 011545Z AUTO 12007KT 2 1/2SM BKN004 BKN018 OVC048 12/12 A2971 RMK AO1 SLP062
SPECI CYNL 011534Z AUTO 13007KT 3SM BKN004 BKN006 OVC013 12/12 A2972 RMK AO1 SLP063
SPECI CYNL 011532Z AUTO 13007KT 2 1/2SM 12/12 A2972 RMK AO1 SLP064
METAR CYNL 011500Z AUTO 11006KT 12/12 A2972 RMK AO1 SLP064
METAR CYNL 011400Z AUTO 14007KT 13/12 A2971 RMK AO1 SLP061
SPECI CYNL 011313Z AUTO 12005KT 9SM OVC003 12/12 A2971 RMK AO1 SLP061
METAR CYNL 011300Z AUTO 11007KT 9SM OVC002 12/12 A2971 RMK AO1 SLP061
SPECI CYNL 011250Z AUTO 12008KT 3SM OVC002 12/12 A2971 RMK AO1 SLP060
SPECI CYNL 011248Z AUTO 13007KT 2SM OVC002 12/12 A2971 RMK AO1 SLP060
SPECI CYNL 011247Z AUTO 12007KT 1 3/4SM OVC002 12/12 A2971 RMK AO1 SLP060
SPECI CYNL 011246Z AUTO 11008KT 1SM OVC002 12/12 A2971 RMK AO1 SLP060
SPECI CYNL 011243Z AUTO 11007KT 5/8SM OVC002 12/12 A2971 RMK AO1 SLP060
SPECI CYNL 011242Z AUTO 12006KT 3/4SM OVC002 12/12 A2971 RMK AO1 SLP060
SPECI CYNL 011240Z AUTO 11006KT 1 1/4SM OVC002 12/12 A2971 RMK AO1 SLP060
SPECI CYNL 011235Z AUTO 12008KT 1 1/2SM OVC002 12/12 A2971 RMK AO1 SLP060
SPECI CYNL 011234Z AUTO 12006KT 1 1/4SM OVC002 12/12 A2971 RMK AO1 SLP060
SPECI CYNL 011233Z AUTO 12006KT 3/4SM OVC002 12/12 A2971 RMK AO1 SLP060
SPECI CYNL 011225Z AUTO 12007KT 5/8SM OVC002 12/12 A2971 RMK AO1 SLP059
SPECI CYNL 011224Z AUTO 12006KT 3/4SM OVC002 12/12 A2971 RMK AO1 SLP059
SPECI CYNL 011218Z AUTO 12006KT 1SM OVC002 12/12 A2971 RMK AO1 SLP060
SPECI CYNL 011217Z AUTO 12005KT 3/4SM OVC002 12/12 A2971 RMK AO1 SLP060
SPECI CYNL 011213Z AUTO 13005KT 1SM OVC002 12/12 A2971 RMK AO1 SLP060
SPECI CYNL 011212Z AUTO 13005KT 3/4SM OVC002 12/12 A2971 RMK AO1 SLP060
SPECI CYNL 011202Z AUTO 12007KT 5/8SM OVC002 12/12 A2971 RMK AO1 SLP060
METAR CYNL 011200Z AUTO 13007KT 3/4SM OVC002 12/12 A2971 RMK AO1 SLP060
SPECI CYNL 011149Z AUTO 13006KT 5/8SM OVC002 12/12 A2971 RMK AO1 SLP059
SPECI CYNL 011147Z AUTO 13006KT 3/4SM OVC002 12/12 A2971 RMK AO1 SLP059
SPECI CYNL 011134Z AUTO 13007KT 1 1/4SM OVC002 12/12 A2971 RMK AO1 SLP058
SPECI CYNL 011131Z AUTO 13005KT 1 3/4SM OVC002 12/12 A2971 RMK AO1 SLP058
SPECI CYNL 011127Z AUTO 11006KT 2 1/2SM OVC002 12/12 A2971 RMK AO1 SLP058
SPECI CYNL 011123Z AUTO 13007KT 3SM OVC002 12/12 A2971 RMK AO1 SLP058
SPECI CYNL 011122Z AUTO 12007KT 2 1/2SM OVC002 12/12 A2971 RMK AO1 SLP058
SPECI CYNL 011113Z AUTO 12005KT 3SM OVC002 12/12 A2971 RMK AO1 SLP057
METAR CYNL 011100Z AUTO 13005KT 5SM OVC003 12/12 A2971 RMK AO1 SLP058
METAR CYNL 011000Z AUTO 12006KT 9SM OVC003 12/12 A2971 RMK AO1 SLP061
METAR CYNL 010900Z AUTO 11008KT 8SM OVC003 12/12 A2972 RMK AO1 SLP063
METAR CYNL 010800Z AUTO 12007KT 9SM OVC003 12/12 A2973 RMK AO1 SLP070
METAR CYNL 010700Z AUTO 11008KT 4SM OVC003 12/11 A2974 RMK AO1 SLP071
SPECI CYNL 010623Z AUTO 11009KT 8SM OVC004 12/11 A2975 RMK AO1 SLP075
METAR CYNL 010600Z AUTO 12009KT 9SM OVC006 12/11 A2975 RMK AO1 SLP075
METAR CYNL 010500Z AUTO 12010KT 9SM OVC007 12/11 A2977 RMK AO1 SLP080
METAR CYNL 010400Z AUTO 11009KT 9SM OVC009 12/11 A2977 RMK AO1 SLP081
SPECI CYNL 010344Z AUTO 11008KT 9SM OVC009 12/11 A2977 RMK AO1 SLP083
METAR CYNL 010300Z AUTO 11009KT 9SM OVC011 13/11 A2976 RMK AO1 SLP080
SPECI CYNL 010217Z AUTO 10008KT 9SM BKN014 OVC018 14/11 A2976 RMK AO1 SLP080
METAR CYNL 010200Z AUTO 11010KT 9SM OVC018 14/11 A2976 RMK AO1 SLP079
SPECI CYNL 010134Z AUTO 10011KT 9SM SCT013 BKN016 OVC019 14/11 A2977 RMK AO1 SLP081
SPECI CYNL 010132Z AUTO 10010G15KT 9SM BKN013 OVC019 14/11 A2977 RMK AO1 SLP081
SPECI CYNL 010131Z AUTO 10009G15KT 9SM SCT012 BKN016 OVC019 14/11 A2977 RMK AO1 SLP081
METAR CYNL 010100Z AUTO 11009KT 9SM OVC014 14/11 A2977 RMK AO1 SLP081
SPECI CYNL 010037Z AUTO 12010KT 9SM BKN014 BKN018 14/11 A2977 RMK AO1 SLP081
SPECI CYNL 010018Z AUTO 10009G16KT 9SM BKN015 15/11 A2977 RMK AO1 SLP082
SPECI CYNL 010013Z AUTO 09011G16KT 9SM BKN014 15/11 A2977 RMK AO1 SLP082
SPECI CYNL 010006Z AUTO 10009KT 9SM SCT012 BKN016 15/11 A2977 RMK AO1 SLP082
METAR CYNL 010000Z AUTO 08011KT 9SM SCT011 BKN013 15/11 A2977 RMK AO1 SLP083
METAR CYNL 302300Z AUTO 09010G15KT 9SM OVC010 13/11 A2979 RMK AO1 SLP090
METAR CYNL 302200Z AUTO 12008KT 9SM FEW008 OVC011 14/11 A2980 RMK AO1 SLP093
SPECI CYNL 302157Z AUTO 12006KT 9SM SCT008 OVC011 14/11 A2980 RMK AO1 SLP094
SPECI CYNL 302103Z AUTO 11008KT 3SM BKN006 OVC008 13/12 A2982 RMK AO1 SLP099
METAR CYNL 302100Z AUTO 11011KT 2SM BKN006 OVC008 13/12 A2982 RMK AO1 SLP099
SPECI CYNL 302058Z AUTO 10009KT 2 1/2SM BKN006 OVC008 13/12 A2982 RMK AO1 SLP100
SPECI CYNL 302019Z AUTO 11010G17KT 9SM BKN007 OVC010 13/11 A2983 RMK AO1 SLP102
SPECI CYNL 302018Z AUTO 11011G17KT 9SM SCT008 OVC010 13/11 A2983 RMK AO1 SLP102
SPECI CYNL 302017Z AUTO 12011G17KT 9SM BKN008 OVC010 13/11 A2983 RMK AO1 SLP102
SPECI CYNL 302013Z AUTO 12009G17KT 6SM SCT008 OVC010 13/11 A2983 RMK AO1 SLP103
SPECI CYNL 302012Z AUTO 10009G17KT 6SM OVC009 13/11 A2983 RMK AO1 SLP103
METAR CYNL 302000Z AUTO 12008KT 9SM OVC010 14/11 A2983 RMK AO1 SLP103
SPECI CYNL 301938Z AUTO 13009KT 9SM OVC010 14/11 A2984 RMK AO1 SLP105
METAR CYNL 301900Z AUTO 12009G16KT 9SM BKN009 OVC011 13/11 A2985 RMK AO1 SLP110
SPECI CYNL 301859Z AUTO 11011KT 9SM BKN009 OVC011 13/11 A2985 RMK AO1 SLP110
SPECI CYNL 301857Z AUTO 10011KT 9SM SCT009 OVC011 13/11 A2985 RMK AO1 SLP110
METAR CYNL 301800Z AUTO 12010KT 9SM OVC011 13/10 A2985 RMK AO1 SLP110
SPECI CYNL 301751Z AUTO 11008KT 9SM OVC010 13/10 A2985 RMK AO1 SLP110
METAR CYNL 301700Z AUTO 11008KT 9SM OVC005 12/11 A2986 RMK AO1 SLP113
SPECI CYNL 301657Z AUTO 11008KT 9SM OVC005 12/11 A2986 RMK AO1 SLP113
SPECI CYNL 301625Z AUTO 12007KT 3SM OVC003 11/11 A2987 RMK AO1 SLP118
SPECI CYNL 301624Z AUTO 11007KT 2 1/2SM OVC003 11/11 A2987 RMK AO1 SLP118
SPECI CYNL 301622Z AUTO 12009KT 3SM OVC003 11/11 A2987 RMK AO1 SLP117
SPECI CYNL 301616Z AUTO 12008KT 2 1/2SM OVC003 11/11 A2987 RMK AO1 SLP117
SPECI CYNL 301615Z AUTO 12008KT 3SM OVC003 11/11 A2987 RMK AO1 SLP117
SPECI CYNL 301612Z AUTO 11008KT 2 1/2SM OVC003 11/11 A2987 RMK AO1 SLP118
SPECI CYNL 301603Z AUTO 11009KT 3SM OVC003 11/11 A2987 RMK AO1 SLP119
METAR CYNL 301600Z AUTO 11007KT 2SM OVC003 11/11 A2988 RMK AO1 SLP119
SPECI CYNL 301551Z AUTO 10009KT 2SM OVC003 11/11 A2988 RMK AO1 SLP120
SPECI CYNL 301540Z AUTO 11007KT 1 1/2SM OVC003 11/11 A2988 RMK AO1 SLP121
SPECI CYNL 301537Z AUTO 11009KT 1 1/4SM OVC003 11/11 A2988 RMK AO1 SLP121
SPECI CYNL 301526Z AUTO 11008KT 1 1/2SM OVC003 11/11 A2988 RMK AO1 SLP121
SPECI CYNL 301523Z AUTO 11007KT 1 1/4SM OVC003 11/11 A2988 RMK AO1 SLP121
SPECI CYNL 301509Z AUTO 11009KT 1 1/2SM OVC003 11/11 A2988 RMK AO1 SLP122
METAR CYNL 301500Z AUTO 11007KT 1 1/4SM OVC003 11/11 A2988 RMK AO1 SLP121
SPECI CYNL 301456Z AUTO 11007KT 1 1/4SM OVC003 11/11 A2988 RMK AO1 SLP121
SPECI CYNL 301455Z AUTO 11008KT 1 1/2SM OVC003 11/11 A2988 RMK AO1 SLP121
SPECI CYNL 301446Z AUTO 10007KT 1 1/4SM OVC003 11/11 A2988 RMK AO1 SLP121
SPECI CYNL 301434Z AUTO 11010KT 1 1/2SM OVC003 11/11 A2988 RMK AO1 SLP121
SPECI CYNL 301424Z AUTO 12009KT 1 1/4SM OVC004 11/10 A2988 RMK AO1 SLP121
SPECI CYNL 301420Z AUTO 11008KT 1 3/4SM OVC004 11/10 A2988 RMK AO1 SLP121
SPECI CYNL 301418Z AUTO 11007KT 2 1/2SM OVC004 11/10 A2988 RMK AO1 SLP121
SPECI CYNL 301413Z AUTO 10008KT 3SM OVC004 11/10 A2988 RMK AO1 SLP120
SPECI CYNL 301412Z AUTO 09009KT 2 1/2SM OVC004 11/10 A2988 RMK AO1 SLP120
SPECI CYNL 301411Z AUTO 10009KT 2 1/2SM OVC005 11/10 A2988 RMK AO1 SLP120
METAR CYNL 301400Z AUTO 11007KT 7SM OVC005 11/10 A2988 RMK AO1 SLP120
METAR CYNL 301300Z AUTO 11007KT 9SM OVC006 11/10 A2988 RMK AO1 SLP120
METAR CYNL 301200Z AUTO 11007KT 9SM OVC006 11/09 A2989 RMK AO1 SLP122
METAR CYNL 301100Z AUTO 11009KT 9SM OVC007 11/09 A2989 RMK AO1 SLP123
SPECI CYNL 301014Z AUTO 10007KT 9SM OVC009 11/09 A2989 RMK AO1 SLP125
METAR CYNL 301000Z AUTO 09006KT 9SM OVC010 11/09 A2989 RMK AO1 SLP125
METAR CYNL 300900Z AUTO 10007KT 9SM OVC011 11/09 A2990 RMK AO1 SLP129
METAR CYNL 300800Z AUTO 12007KT 9SM OVC012 11/09 A2991 RMK AO1 SLP133
SPECI CYNL 300716Z AUTO 11007KT 9SM BKN013 OVC082 11/09 A2991 RMK AO1 SLP133
SPECI CYNL 300708Z AUTO 10009KT 9SM FEW013 BKN021 OVC082 11/09 A2991 RMK AO1 SLP132
METAR CYNL 300700Z AUTO 09008KT 9SM SCT022 BKN029 OVC082 11/09 A2991 RMK AO1 SLP131
SPECI CYNL 300659Z AUTO 09008KT 9SM SCT022 BKN029 OVC082 11/09 A2991 RMK AO1 SLP131
SPECI CYNL 300616Z AUTO 10011KT 9SM BKN024 OVC029 12/08 A2991 RMK AO1 SLP133
SPECI CYNL 300615Z AUTO 10010G16KT 9SM BKN025 OVC029 12/09 A2991 RMK AO1 SLP133
SPECI CYNL 300614Z AUTO 09009G16KT 9SM BKN024 OVC029 12/09 A2991 RMK AO1 SLP133
METAR CYNL 300600Z AUTO 11008KT 9SM OVC027 12/09 A2991 RMK AO1 SLP134
METAR CYNL 300500Z AUTO 11008KT 9SM OVC027 13/10 A2991 RMK AO1 SLP131
METAR CYNL 300400Z AUTO 08006KT 9SM OVC025 13/10 A2991 RMK AO1 SLP132
SPECI CYNL 300350Z AUTO 07004KT 9SM OVC025 13/10 A2991 RMK AO1 SLP130
METAR CYNL 300300Z AUTO 09006KT 9SM OVC022 13/09 A2990 RMK AO1 SLP128
METAR CYNL 300200Z AUTO 08009KT 9SM OVC022 13/09 A2989 RMK AO1 SLP125
METAR CYNL 300100Z AUTO 07009KT 9SM OVC019 13/09 A2989 RMK AO1 SLP125
METAR CYNL 300000Z AUTO 08010G16KT 9SM OVC018 13/09 A2989 RMK AO1 SLP124
METAR CYNL 292300Z AUTO 08011G17KT 9SM OVC015 13/09 A2988 RMK AO1 SLP123
SPECI CYNL 292242Z AUTO 08007KT 9SM OVC015 13/09 A2989 RMK AO1 SLP123
METAR CYNL 292200Z AUTO 08010KT 9SM OVC014 13/09 A2988 RMK AO1 SLP123
METAR CYNL 292100Z AUTO 08011KT 9SM OVC012 12/09 A2988 RMK AO1 SLP122
SPECI CYNL 292022Z AUTO 08011KT 9SM OVC010 11/09 A2988 RMK AO1 SLP123
METAR CYNL 292000Z AUTO 09009KT 9SM OVC009 11/08 A2988 RMK AO1 SLP124
METAR CYNL 291900Z AUTO 07010G15KT 9SM OVC007 11/09 A2987 RMK AO1 SLP119
SPECI CYNL 291828Z AUTO 07010KT 3SM BKN005 OVC009 10/10 A2986 RMK AO1 SLP118
SPECI CYNL 291820Z AUTO 07009G15KT 2SM BKN005 BKN007 OVC012 10/10 A2986 RMK AO1 SLP118
SPECI CYNL 291819Z AUTO 08009G15KT 1 3/4SM BKN005 OVC012 10/10 A2986 RMK AO1 SLP118
SPECI CYNL 291813Z AUTO 07009G15KT 2SM BKN005 OVC008 10/10 A2986 RMK AO1 SLP117
SPECI CYNL 291808Z AUTO 07010KT 1 3/4SM BKN005 BKN007 OVC010 10/10 A2986 RMK AO1 SLP117
SPECI CYNL 291803Z AUTO 07010KT 2SM BKN006 OVC011 10/10 A2986 RMK AO1 SLP118
METAR CYNL 291800Z AUTO 06011G16KT 1 3/4SM BKN006 OVC011 10/09 A2986 RMK AO1 SLP118
SPECI CYNL 291759Z AUTO 06011KT 1 3/4SM BKN006 OVC011 10/09 A2986 RMK AO1 SLP118
SPECI CYNL 291756Z AUTO 07009G16KT 2 1/2SM BKN005 OVC011 10/09 A2986 RMK AO1 SLP117
SPECI CYNL 291755Z AUTO 07010G16KT 3SM BKN005 OVC010 10/09 A2986 RMK AO1 SLP117
SPECI CYNL 291747Z AUTO 08011KT 2 1/2SM BKN005 OVC008 10/09 A2986 RMK AO1 SLP117
SPECI CYNL 291738Z AUTO 06009KT 3SM BKN005 OVC007 10/09 A2986 RMK AO1 SLP117
SPECI CYNL 291734Z AUTO 07008KT 2SM OVC005 10/09 A2986 RMK AO1 SLP117
SPECI CYNL 291729Z AUTO 07009KT 1 3/4SM OVC005 10/09 A2986 RMK AO1 SLP117
SPECI CYNL 291728Z AUTO 07008KT 2SM OVC005 10/09 A2986 RMK AO1 SLP117
SPECI CYNL 291726Z AUTO 08008KT 1 1/2SM OVC006 10/09 A2986 RMK AO1 SLP117
SPECI CYNL 291718Z AUTO 08010KT 1 1/4SM OVC006 10/09 A2986 RMK AO1 SLP117
SPECI CYNL 291715Z AUTO 07008KT 1 3/4SM OVC006 10/09 A2986 RMK AO1 SLP116
SPECI CYNL 291711Z AUTO 08010KT 2 1/2SM OVC006 10/09 A2986 RMK AO1 SLP115
SPECI CYNL 291710Z AUTO 07009KT 3SM OVC006 10/09 A2985 RMK AO1 SLP115
SPECI CYNL 291701Z AUTO 07010KT 2 1/2SM OVC007 10/09 A2985 RMK AO1 SLP115
METAR CYNL 291700Z AUTO 07009KT 3SM OVC007 10/09 A2986 RMK AO1 SLP115
METAR CYNL 291600Z AUTO 07012KT 9SM OVC006 10/08 A2984 RMK AO1 SLP111
METAR CYNL 291500Z AUTO 08011KT 9SM OVC006 10/08 A2983 RMK AO1 SLP105
METAR CYNL 291400Z AUTO 08010KT 9SM OVC006 10/09 A2982 RMK AO1 SLP100
SPECI CYNL 291318Z AUTO 07010KT 3SM OVC006 10/09 A2981 RMK AO1 SLP097
SPECI CYNL 291312Z AUTO 07011KT 2 1/2SM OVC006 10/09 A2981 RMK AO1 SLP098
METAR CYNL 291300Z AUTO 07010KT 6SM OVC006 10/09 A2981 RMK AO1 SLP097
METAR CYNL 291200Z AUTO 08009KT 9SM OVC007 10/09 A2980 RMK AO1 SLP093
METAR CYNL 291100Z AUTO 07011KT 9SM OVC007 10/08 A2979 RMK AO1 SLP090
METAR CYNL 291000Z AUTO 07010KT 9SM OVC007 10/09 A2979 RMK AO1 SLP087
METAR CYNL 290900Z AUTO 07011KT 9SM OVC008 10/09 A2978 RMK AO1 SLP084
SPECI CYNL 290822Z AUTO 06010KT 9SM OVC009 11/09 A2976 RMK AO1 SLP080
METAR CYNL 290800Z AUTO 06011KT 9SM OVC010 11/09 A2976 RMK AO1 SLP079
METAR CYNL 290700Z AUTO 06010KT 9SM OVC010 11/09 A2974 RMK AO1 SLP073
METAR CYNL 290600Z AUTO 06010KT 9SM OVC010 11/09 A2974 RMK AO1 SLP072
METAR CYNL 290500Z AUTO 06009G15KT 7SM OVC010 11/09 A2974 RMK AO1 SLP070
METAR CYNL 290400Z AUTO 06010KT 9SM BKN013 OVC016 12/09 A2973 RMK AO1 PRESRR SLP067
SPECI CYNL 290333Z AUTO 06010KT 9SM BKN013 OVC021 12/09 A2972 RMK AO1 SLP062
METAR CYNL 290300Z AUTO 07010G16KT 9SM BKN017 OVC022 13/10 A2970 RMK AO1 SLP056
METAR CYNL 290200Z AUTO 07010KT 9SM BKN021 OVC048 14/10 A2969 RMK AO1 SLP050
SPECI CYNL 290141Z AUTO 07011KT 9SM BKN022 BKN047 14/10 A2968 RMK AO1 SLP049
SPECI CYNL 290139Z AUTO 07009KT 9SM SCT021 BKN025 OVC047 14/10 A2968 RMK AO1 SLP049
METAR CYNL 290100Z AUTO 08012KT 9SM BKN018 BKN033 14/10 A2967 RMK AO1 SLP045
METAR CYNL 290000Z AUTO 07010KT 9SM BKN015 OVC047 14/10 A2966 RMK AO1 SLP043
SPECI CYNL 282312Z AUTO 07013G18KT 9SM BKN018 15/10 A2964 RMK AO1 SLP038
METAR CYNL 282300Z AUTO 07015G20KT 9SM SCT019 BKN052 15/10 A2964 RMK AO1 SLP037
METAR CYNL 282200Z AUTO 07012G19KT 9SM FEW015 15/10 A2963 RMK AO1 SLP035
METAR CYNL 282100Z AUTO 06011G17KT 9SM FEW013 SCT062 13/10 A2962 RMK AO1 SLP033
SPECI CYNL 282040Z AUTO 06009G17KT 9SM SCT012 BKN030 13/11 A2962 RMK AO1 SLP032
SPECI CYNL 282036Z AUTO 06013KT 6SM SCT012 BKN021 13/11 A2962 RMK AO1 SLP032
METAR CYNL 282000Z AUTO 05011G17KT 9SM BKN012 OVC028 14/11 A2961 RMK AO1 SLP028
SPECI CYNL 281943Z AUTO 08012G19KT 9SM BKN014 BKN029 OVC040 13/11 A2961 RMK AO1 SLP028
SPECI CYNL 281939Z AUTO 06014KT 9SM BKN015 BKN028 OVC052 13/11 A2961 RMK AO1 SLP027
SPECI CYNL 281937Z AUTO 07009G16KT 5SM BKN014 BKN028 OVC040 13/11 A2961 RMK AO1 SLP027
SPECI CYNL 281935Z AUTO 08011G16KT 4SM SCT014 BKN018 OVC028 13/11 A2961 RMK AO1 SLP026
SPECI CYNL 281914Z AUTO 07012KT 9SM BKN014 14/11 A2960 RMK AO1 SLP023
SPECI CYNL 281913Z AUTO 07011G16KT 9SM SCT014 BKN020 14/11 A2960 RMK AO1 SLP023
SPECI CYNL 281908Z AUTO 06012KT 8SM BKN014 BKN049 14/11 A2959 RMK AO1 SLP022
SPECI CYNL 281905Z AUTO 07009G17KT 9SM SCT014 BKN020 14/11 A2959 RMK AO1 SLP022
METAR CYNL 281900Z AUTO 08013KT 9SM SCT014 BKN039 14/10 A2959 RMK AO1 SLP021
SPECI CYNL 281855Z AUTO 07011KT 9SM FEW014 SCT019 BKN039 14/10 A2959 RMK AO1 SLP020
SPECI CYNL 281844Z AUTO 07011KT 9SM SCT014 BKN018 OVC034 14/11 A2959 RMK AO1 SLP019
SPECI CYNL 281842Z AUTO 07012KT 9SM BKN014 BKN024 OVC034 14/11 A2959 RMK AO1 SLP018
SPECI CYNL 281839Z AUTO 08010G17KT 9SM SCT014 BKN019 BKN024 14/10 A2959 RMK AO1 SLP018
METAR CYNL 281800Z AUTO 07008KT 9SM BKN014 14/11 A2958 RMK AO1 SLP015
SPECI CYNL 281752Z AUTO 05009KT 9SM BKN013 14/11 A2957 RMK AO1 SLP014
SPECI CYNL 281734Z AUTO 07009KT 9SM SCT012 BKN033 13/12 A2958 RMK AO1 SLP017
SPECI CYNL 281731Z AUTO 06009KT 4SM SCT011 BKN023 13/12 A2958 RMK AO1 SLP017
SPECI CYNL 281729Z AUTO 06010KT 3SM VV012 13/12 A2958 RMK AO1 SLP017
SPECI CYNL 281727Z AUTO 07008KT 2SM VV014 13/12 A2958 RMK AO1 SLP017
SPECI CYNL 281725Z AUTO 07010G15KT 2SM VV019 13/11 A2958 RMK AO1 SLP016
SPECI CYNL 281724Z AUTO 07011KT 1 3/4SM VV023 13/11 A2958 RMK AO1 SLP016
SPECI CYNL 281721Z AUTO 07011KT 1 3/4SM VV027 13/11 A2958 RMK AO1 SLP016
SPECI CYNL 281720Z AUTO 07011KT 2SM VV028 13/11 A2958 RMK AO1 SLP016
SPECI CYNL 281719Z AUTO 07012KT 1 3/4SM SCT010 BKN037 13/11 A2958 RMK AO1 SLP016
SPECI CYNL 281716Z AUTO 07012KT 2 1/2SM SCT011 BKN036 13/11 A2958 RMK AO1 SLP016
SPECI CYNL 281714Z AUTO 08013KT 4SM SCT010 BKN026 13/11 A2958 RMK AO1 SLP015
METAR CYNL 281700Z AUTO 07011G17KT 9SM BKN010 BKN037 13/11 A2957 RMK AO1 SLP014
SPECI CYNL 281645Z AUTO 07010G16KT 9SM SCT010 BKN014 BKN020 13/11 A2957 RMK AO1 SLP013
SPECI CYNL 281631Z AUTO 06010G16KT 9SM FEW015 BKN020 BKN062 14/11 A2956 RMK AO1 SLP010
SPECI CYNL 281628Z AUTO 08012KT 9SM SCT019 BKN027 14/10 A2956 RMK AO1 SLP009
SPECI CYNL 281626Z AUTO 07011G16KT 9SM BKN019 BKN062 14/10 A2956 RMK AO1 SLP009
SPECI CYNL 281614Z AUTO 08010KT 9SM SCT019 BKN025 BKN062 14/09 A2956 RMK AO1 SLP007
SPECI CYNL 281609Z AUTO 06008KT 9SM SCT019 BKN024 15/10 A2956 RMK AO1 SLP007
SPECI CYNL 281602Z AUTO 07008KT 9SM SCT019 BKN049 15/10 A2956 RMK AO1 SLP006
METAR CYNL 281600Z AUTO 08011KT 9SM BKN018 15/10 A2955 RMK AO1 SLP006
SPECI CYNL 281555Z AUTO 06009KT 9SM SCT016 BKN020 15/10 A2955 RMK AO1 SLP005
SPECI CYNL 281523Z AUTO 07011KT 9SM FEW011 SCT015 BKN058 14/10 A2956 RMK AO1 SLP006
SPECI CYNL 281518Z AUTO 08011KT 9SM FEW012 BKN015 BKN058 14/10 A2956 RMK AO1 SLP006
SPECI CYNL 281517Z AUTO 08010KT 9SM BKN014 BKN058 14/10 A2956 RMK AO1 SLP006
SPECI CYNL 281516Z AUTO 08008KT 9SM FEW012 BKN015 BKN058 14/10 A2956 RMK AO1 SLP006
SPECI CYNL 281514Z AUTO 09010KT 9SM SCT014 BKN058 14/10 A2956 RMK AO1 SLP006
SPECI CYNL 281513Z AUTO 08009KT 9SM SCT014 BKN018 BKN058 14/10 A2956 RMK AO1 SLP006
SPECI CYNL 281507Z AUTO 08011KT 9SM SCT013 BKN060 14/10 A2956 RMK AO1 SLP006
SPECI CYNL 281506Z AUTO 07011KT 9SM SCT013 BKN018 14/10 A2956 RMK AO1 SLP006
METAR CYNL 281500Z AUTO 08009G15KT 9SM BKN013 14/11 A2956 RMK AO1 SLP006
SPECI CYNL 281456Z AUTO 06011KT 9SM BKN013 14/11 A2955 RMK AO1 SLP004
SPECI CYNL 281454Z AUTO 06010KT 9SM SCT013 BKN015 BKN018 14/11 A2956 RMK AO1 SLP004
SPECI CYNL 281445Z AUTO 08006G16KT 9SM BKN013 14/11 A2955 RMK AO1 SLP004
SPECI CYNL 281437Z AUTO 07010KT 9SM SCT012 BKN015 14/11 A2955 RMK AO1 SLP003
METAR CYNL 281400Z AUTO 09007KT 9SM FEW009 SCT015 12/11 A2955 RMK AO1 SLP005
SPECI CYNL 281352Z AUTO 09006KT 9SM FEW009 SCT015 BKN058 13/11 A2955 RMK AO1 SLP004
SPECI CYNL 281331Z AUTO 07007KT 9SM SCT007 OVC015 12/10 A2955 RMK AO1 SLP004
SPECI CYNL 281325Z AUTO 09009KT 9SM SCT007 BKN010 OVC015 12/10 A2955 RMK AO1 SLP004
METAR CYNL 281300Z AUTO 10006KT 9SM BKN005 OVC010 11/11 A2955 RMK AO1 SLP004
SPECI CYNL 281251Z AUTO 08007KT 9SM BKN005 BKN008 OVC011 11/11 A2955 RMK AO1 SLP003
SPECI CYNL 281250Z AUTO 08007KT 9SM BKN004 BKN008 OVC011 11/11 A2955 RMK AO1 SLP003
SPECI CYNL 281249Z AUTO 08007KT 9SM BKN005 BKN008 OVC011 11/11 A2955 RMK AO1 SLP003
METAR CYNL 281200Z AUTO 07007KT 9SM OVC003 11/11 A2954 RMK AO1 SLP000
SPECI CYNL 281149Z AUTO 08008KT 9SM OVC003 11/11 A2954 RMK AO1 SLP999
SPECI CYNL 281109Z AUTO 07004KT 3SM OVC002 10/10 A2954 RMK AO1 SLP999
SPECI CYNL 281108Z AUTO 07005KT 2SM BKN002 10/10 A2954 RMK AO1 SLP999
SPECI CYNL 281105Z AUTO 05006KT 1 3/4SM BKN002 10/10 A2954 RMK AO1 SLP999
SPECI CYNL 281104Z AUTO 05006KT 2SM BKN002 10/10 A2954 RMK AO1 SLP999
METAR CYNL 281100Z AUTO 06005KT 6SM BKN002 10/10 A2954 RMK AO1 SLP998
SPECI CYNL 281050Z AUTO 08005KT 9SM BKN002 10/10 A2954 RMK AO1 SLP998
SPECI CYNL 281014Z AUTO 08005KT 9SM SCT002 BKN028 10/10 A2953 RMK AO1 SLP997
METAR CYNL 281000Z AUTO 07005KT 9SM FEW002 SCT028 10/10 A2953 RMK AO1 SLP997
SPECI CYNL 280950Z AUTO 07006KT 9SM SCT002 10/10 A2953 RMK AO1 SLP996
SPECI CYNL 280935Z AUTO 07007KT 3SM VV002 10/10 A2953 RMK AO1 SLP997
SPECI CYNL 280934Z AUTO 07006KT 2 1/2SM BKN002 10/10 A2953 RMK AO1 SLP997
SPECI CYNL 280933Z AUTO 06006KT 1 3/4SM BKN002 10/10 A2953 RMK AO1 SLP997
SPECI CYNL 280930Z AUTO 06007KT 1 1/4SM BKN002 10/10 A2953 RMK AO1 SLP997
SPECI CYNL 280928Z AUTO 05006KT 1 1/2SM BKN002 10/10 A2953 RMK AO1 SLP997
SPECI CYNL 280927Z AUTO 05006KT 1SM BKN002 10/10 A2953 RMK AO1 SLP997
SPECI CYNL 280922Z AUTO 05007KT 3/8SM VV002 10/10 A2953 RMK AO1 SLP997
SPECI CYNL 280916Z AUTO 06006KT 5/8SM FEW002 10/10 A2953 RMK AO1 SLP997
SPECI CYNL 280915Z AUTO 07006KT 1 1/4SM FEW002 10/10 A2953 RMK AO1 SLP997
SPECI CYNL 280914Z AUTO 07006KT 2 1/2SM FEW002 10/10 A2953 RMK AO1 SLP997
SPECI CYNL 280911Z AUTO 06006KT 9SM FEW001 10/10 A2953 RMK AO1 SLP997
METAR CYNL 280900Z AUTO 06007KT 9SM CLR 10/10 A2953 RMK AO1 SLP996
METAR CYNL 280800Z AUTO 08005KT 9SM CLR 11/10 A2953 RMK AO1 SLP997
METAR CYNL 280700Z AUTO 08005KT 9SM FEW034 BKN066 12/11 A2954 RMK AO1 SLP996
METAR CYNL 280600Z AUTO 08005KT 9SM OVC064 12/10 A2954 RMK AO1 SLP998
METAR CYNL 280500Z AUTO 09005KT 9SM SCT058 12/10 A2954 RMK AO1 SLP998
METAR CYNL 280400Z AUTO 08004KT 9SM CLR 13/11 A2954 RMK AO1 SLP996
METAR CYNL 280300Z AUTO 10006KT 9SM CLR 15/11 A2953 RMK AO1 SLP994
METAR CYNL 280200Z AUTO 11006KT 9SM CLR 16/10 A2952 RMK AO1 SLP991
METAR CYNL 280100Z AUTO 20009KT 9SM FEW044 BKN070 17/08 A2952 RMK AO1 SLP992
METAR CYNL 280000Z AUTO 16007KT 9SM SCT039 18/08 A2952 RMK AO1 SLP989
METAR CYNL 272300Z AUTO 18007KT 9SM FEW096 18/07 A2951 RMK AO1 SLP985
METAR CYNL 272200Z AUTO 13003KT 9SM FEW068 18/06 A2951 RMK AO1 SLP984
METAR CYNL 272100Z AUTO 19007KT 9SM FEW052 18/08 A2951 RMK AO1 SLP987
METAR CYNL 272000Z AUTO 22009KT 9SM FEW092 SCT180 18/06 A2951 RMK AO1 SLP985
METAR CYNL 271900Z AUTO 21007KT 9SM SCT084 18/08 A2950 RMK AO1 SLP985
METAR CYNL 271800Z AUTO 24007KT 9SM FEW035 SCT180 18/09 A2950 RMK AO1 SLP984
METAR CYNL 271700Z AUTO 24005KT 9SM FEW025 SCT040 17/09 A2950 RMK AO1 SLP985
SPECI CYNL 271645Z AUTO 22008KT 9SM SCT027 BKN037 16/09 A2951 RMK AO1 SLP988
SPECI CYNL 271643Z AUTO 23009KT 9SM BKN029 BKN037 OVC210 16/10 A2951 RMK AO1 SLP988
SPECI CYNL 271615Z AUTO 19007KT 9SM FEW021 BKN030 16/11 A2951 RMK AO1 SLP989
METAR CYNL 271600Z AUTO 23006KT 9SM FEW017 BKN027 16/10 A2951 RMK AO1 SLP988
SPECI CYNL 271547Z AUTO 22004KT 9SM SCT018 OVC025 15/11 A2951 RMK AO1 SLP990
SPECI CYNL 271521Z AUTO 23006KT 9SM BKN017 15/10 A2951 RMK AO1 SLP990
METAR CYNL 271500Z AUTO 25003KT 9SM FEW015 BKN048 14/11 A2951 RMK AO1 SLP991
METAR CYNL 271400Z AUTO 25005KT 9SM FEW030 OVC044 13/11 A2951 RMK AO1 SLP992
SPECI CYNL 271345Z AUTO 25005KT 9SM SCT029 OVC044 13/11 A2951 RMK AO1 SLP991
METAR CYNL 271300Z AUTO 23007KT 9SM OVC025 13/12 A2951 RMK AO1 SLP992
SPECI CYNL 271254Z AUTO 23007KT 9SM FEW018 OVC025 13/12 A2951 RMK AO1 SLP992
SPECI CYNL 271232Z AUTO 23006KT 9SM SCT008 OVC017 13/12 A2951 RMK AO1 SLP991
SPECI CYNL 271231Z AUTO 23008KT 9SM SCT008 BKN014 OVC017 13/12 A2951 RMK AO1 SLP991
SPECI CYNL 271230Z AUTO 22006KT 9SM SCT008 OVC016 13/13 A2951 RMK AO1 SLP991
SPECI CYNL 271208Z AUTO 26007KT 9SM BKN008 OVC011 14/14 A2951 RMK AO1 SLP991
SPECI CYNL 271201Z AUTO 25005KT 9SM SCT008 OVC010 14/14 A2952 RMK AO1 SLP992
METAR CYNL 271200Z AUTO 24005KT 9SM BKN008 OVC010 14/14 A2952 RMK AO1 SLP992
SPECI CYNL 271147Z AUTO 23006KT 9SM SCT008 OVC010 14/14 A2952 RMK AO1 SLP992
SPECI CYNL 271144Z AUTO 22006KT 9SM BKN008 BKN010 OVC015 14/14 A2952 RMK AO1 SLP992
SPECI CYNL 271143Z AUTO 22006KT 9SM SCT008 BKN010 OVC015 14/14 A2952 RMK AO1 SLP992
METAR CYNL 271100Z AUTO 20004KT 9SM BKN007 OVC010 15/15 A2951 RMK AO1 SLP991
SPECI CYNL 271055Z AUTO 20004KT 9SM FEW006 BKN009 OVC019 15/15 A2951 RMK AO1 SLP989
SPECI CYNL 271050Z AUTO 21004KT 9SM SCT006 BKN010 15/15 A2951 RMK AO1 SLP989
SPECI CYNL 271049Z AUTO 20005KT 9SM SCT006 BKN009 BKN011 15/15 A2951 RMK AO1 SLP988
SPECI CYNL 271047Z AUTO 21005KT 9SM SCT006 BKN010 BKN017 15/15 A2951 RMK AO1 SLP989
SPECI CYNL 271044Z AUTO 21003KT 9SM SCT006 BKN009 BKN017 15/15 A2951 RMK AO1 SLP988
SPECI CYNL 271043Z AUTO 20003KT 9SM SCT006 BKN010 BKN017 15/15 A2951 RMK AO1 SLP988
SPECI CYNL 271039Z AUTO 18005KT 9SM SCT006 BKN009 BKN017 15/15 A2951 RMK AO1 SLP988
SPECI CYNL 271037Z AUTO 19004KT 9SM FEW006 BKN010 BKN017 15/15 A2951 RMK AO1 SLP988
SPECI CYNL 271036Z AUTO 19004KT 9SM FEW004 BKN009 BKN017 15/15 A2951 RMK AO1 SLP988
SPECI CYNL 271027Z AUTO 19006KT 9SM FEW005 SCT010 BKN017 15/15 A2951 RMK AO1 SLP987
SPECI CYNL 271026Z AUTO 19007KT 9SM FEW005 SCT009 BKN011 15/15 A2951 RMK AO1 SLP987
SPECI CYNL 271024Z AUTO 19005KT 9SM FEW004 BKN009 BKN016 15/15 A2951 RMK AO1 SLP987
SPECI CYNL 271021Z AUTO 19004KT 9SM FEW005 SCT008 BKN010 15/15 A2951 RMK AO1 SLP987
SPECI CYNL 271019Z AUTO 19004KT 9SM FEW004 BKN008 OVC016 15/15 A2951 RMK AO1 SLP987
SPECI CYNL 271017Z AUTO 19004KT 9SM FEW004 SCT008 BKN010 15/15 A2951 RMK AO1 SLP987
METAR CYNL 271000Z AUTO 14004KT 9SM FEW002 BKN008 OVC011 14/14 A2951 RMK AO1 SLP989
SPECI CYNL 270942Z AUTO 11004KT 4SM SCT002 BKN008 OVC011 14/14 A2952 RMK AO1 SLP990
SPECI CYNL 270940Z AUTO 12004KT 3SM BKN002 BKN009 OVC010 14/14 A2952 RMK AO1 SLP990
SPECI CYNL 270938Z AUTO 12003KT 2SM BKN002 BKN009 OVC010 14/14 A2952 RMK AO1 SLP990
SPECI CYNL 270937Z AUTO 12004KT 1 1/2SM VV006 14/14 A2952 RMK AO1 SLP990
SPECI CYNL 270935Z AUTO 11004KT 1SM BKN002 OVC010 14/14 A2952 RMK AO1 SLP990
SPECI CYNL 270921Z AUTO 12007KT 1/4SM VV002 14/14 A2952 RMK AO1 SLP990
METAR CYNL 270900Z AUTO 11008KT 1/8SM VV001 13/13 A2952 RMK AO1 SLP992
SPECI CYNL 270848Z AUTO 10007KT 1/8SM OVC002 13/13 A2952 RMK AO1 SLP994
SPECI CYNL 270829Z AUTO 10009KT 1/4SM VV002 13/13 A2953 RMK AO1 SLP995
METAR CYNL 270800Z AUTO 09011G16KT 1/8SM VV001 13/13 A2954 RMK AO1 SLP998
METAR CYNL 270700Z AUTO 09014G20KT 1/8SM VV002 13/13 A2954 RMK AO1 SLP002
SPECI CYNL 270657Z AUTO 09012KT 1/8SM OVC002 13/13 A2955 RMK AO1 SLP002
SPECI CYNL 270634Z AUTO 08010KT 5/8SM OVC002 13/13 A2955 RMK AO1 SLP003
SPECI CYNL 270630Z AUTO 08010KT 3/4SM OVC002 13/13 A2955 RMK AO1 SLP003
SPECI CYNL 270626Z AUTO 09011KT 1 1/4SM OVC002 13/13 A2955 RMK AO1 SLP004
SPECI CYNL 270621Z AUTO 08011KT 1 3/4SM OVC002 13/13 A2955 RMK AO1 SLP004
SPECI CYNL 270618Z AUTO 09010KT 2 1/2SM OVC002 13/13 A2955 RMK AO1 SLP005
SPECI CYNL 270613Z AUTO 09013KT 2 1/2SM OVC003 13/13 A2956 RMK AO1 SLP005
METAR CYNL 270600Z AUTO 09011KT 4SM OVC003 13/13 A2955 RMK AO1 SLP005
SPECI CYNL 270519Z AUTO 09010KT 9SM OVC004 13/13 A2957 RMK AO1 SLP009
METAR CYNL 270500Z AUTO 09010G17KT 9SM OVC005 14/13 A2957 RMK AO1 SLP011
METAR CYNL 270400Z AUTO 09011G16KT 9SM OVC005 14/13 A2959 RMK AO1 SLP016
METAR CYNL 270300Z AUTO 09012G19KT 9SM OVC006 14/13 A2960 RMK AO1 SLP019
SPECI CYNL 270223Z AUTO 08011G20KT 9SM BKN008 OVC015 14/13 A2960 RMK AO1 SLP019
SPECI CYNL 270212Z AUTO 08013G19KT 9SM SCT008 BKN014 BKN018 14/13 A2959 RMK AO1 SLP018
METAR CYNL 270200Z AUTO 08013G19KT 8SM SCT008 BKN016 BKN110 14/13 A2959 RMK AO1 SLP018
SPECI CYNL 270147Z AUTO 07013KT 9SM FEW005 SCT008 BKN018 14/13 A2960 RMK AO1 SLP019
SPECI CYNL 270145Z AUTO 07015KT 9SM FEW005 SCT008 BKN082 14/13 A2960 RMK AO1 SLP019
SPECI CYNL 270126Z AUTO 08010G17KT 9SM BKN007 14/13 A2961 RMK AO1 SLP023